Wetterdaten: Freitag, 23.07.2021
Datum Zeit Temp. Aussen Temp. o. S. Temp +5cm Feuchte Auss Luftdruck Regen Sonnenschein Regendauer Solar Windben Empfang
23.07.2021 00:00 18,8 C 17,2 C 15,6 C 76 % 1019,9 hPa 0,0 l/m 0 min 0 min 0 W/m 6,4 km/h (2 Bft) 100,00 %
23.07.2021 00:02 18,7 C 17,2 C 15,0 C 76 % 1019,9 hPa 0,0 l/m 0 min 0 min 0 W/m 3,2 km/h (1 Bft) 100,00 %
23.07.2021 00:04 18,6 C 17,2 C 15,0 C 76 % 1019,9 hPa 0,0 l/m 0 min 0 min 0 W/m 3,2 km/h (1 Bft) 100,00 %
23.07.2021 00:08 18,5 C 16,7 C 15,0 C 76 % 1019,9 hPa 0,0 l/m 0 min 0 min 0 W/m 6,4 km/h (2 Bft) 100,00 %
23.07.2021 00:10 18,4 C 16,7 C 14,5 C 77 % 1019,9 hPa 0,0 l/m 0 min 0 min 0 W/m 3,2 km/h (1 Bft) 98,28 %
23.07.2021 00:12 18,4 C 16,7 C 14,5 C 77 % 1019,9 hPa 0,0 l/m 0 min 0 min 0 W/m 6,4 km/h (2 Bft) 100,00 %
23.07.2021 00:14 18,3 C 16,7 C 14,5 C 78 % 1019,9 hPa 0,0 l/m 0 min 0 min 0 W/m 3,2 km/h (1 Bft) 98,11 %
23.07.2021 00:16 18,1 C 16,7 C 14,5 C 78 % 1020,0 hPa 0,0 l/m 0 min 0 min 0 W/m 6,4 km/h (2 Bft) 95,74 %
23.07.2021 00:18 18,0 C 16,7 C 14,5 C 78 % 1020,0 hPa 0,0 l/m 0 min 0 min 0 W/m 6,4 km/h (2 Bft) 97,87 %
23.07.2021 00:20 18,0 C 16,7 C 14,5 C 79 % 1020,0 hPa 0,0 l/m 0 min 0 min 0 W/m 6,4 km/h (2 Bft) 97,83 %
23.07.2021 00:22 17,9 C 16,7 C 14,5 C 79 % 1020,0 hPa 0,0 l/m 0 min 0 min 0 W/m 3,2 km/h (1 Bft) 95,74 %
23.07.2021 00:24 17,8 C 16,7 C 14,5 C 79 % 1020,0 hPa 0,0 l/m 0 min 0 min 0 W/m 3,2 km/h (1 Bft) 97,87 %
23.07.2021 00:26 17,7 C 16,7 C 14,5 C 79 % 1020,0 hPa 0,0 l/m 0 min 0 min 0 W/m 3,2 km/h (1 Bft) 95,74 %
23.07.2021 00:28 17,6 C 16,7 C 14,5 C 80 % 1020,0 hPa 0,0 l/m 0 min 0 min 0 W/m 0,0 km/h (0 Bft) 95,74 %
23.07.2021 00:30 17,6 C 16,7 C 14,5 C 80 % 1019,9 hPa 0,0 l/m 0 min 0 min 0 W/m 0,0 km/h (0 Bft) 91,49 %
23.07.2021 00:32 17,6 C 16,1 C 14,5 C 81 % 1020,0 hPa 0,0 l/m 0 min 0 min 0 W/m 3,2 km/h (1 Bft) 95,65 %
23.07.2021 00:34 17,5 C 16,1 C 14,5 C 81 % 1020,0 hPa 0,0 l/m 0 min 0 min 0 W/m 0,0 km/h (0 Bft) 93,62 %
23.07.2021 00:36 17,5 C 16,1 C 14,5 C 81 % 1020,0 hPa 0,0 l/m 0 min 0 min 0 W/m 3,2 km/h (1 Bft) 95,74 %
23.07.2021 00:38 17,5 C 16,1 C 14,5 C 81 % 1020,0 hPa 0,0 l/m 0 min 0 min 0 W/m 3,2 km/h (1 Bft) 93,62 %
23.07.2021 00:40 17,4 C 16,1 C 14,5 C 81 % 1020,0 hPa 0,0 l/m 0 min 0 min 0 W/m 3,2 km/h (1 Bft) 95,74 %
23.07.2021 00:42 17,4 C 16,1 C 14,5 C 81 % 1020,1 hPa 0,0 l/m 0 min 0 min 0 W/m 3,2 km/h (1 Bft) 95,74 %
23.07.2021 00:44 17,4 C 16,1 C 14,5 C 81 % 1020,1 hPa 0,0 l/m 0 min 0 min 0 W/m 3,2 km/h (1 Bft) 95,65 %
23.07.2021 00:46 17,3 C 16,1 C 14,5 C 81 % 1020,1 hPa 0,0 l/m 0 min 0 min 0 W/m 3,2 km/h (1 Bft) 95,74 %
23.07.2021 00:48 17,3 C 16,1 C 14,5 C 82 % 1020,1 hPa 0,0 l/m 0 min 0 min 0 W/m 3,2 km/h (1 Bft) 95,74 %
23.07.2021 00:50 17,3 C 16,1 C 14,5 C 82 % 1020,1 hPa 0,0 l/m 0 min 0 min 0 W/m 3,2 km/h (1 Bft) 93,62 %
23.07.2021 00:52 17,3 C 16,1 C 14,5 C 82 % 1020,1 hPa 0,0 l/m 0 min 0 min 0 W/m 3,2 km/h (1 Bft) 93,62 %
23.07.2021 00:54 17,3 C 16,1 C 14,5 C 82 % 1020,1 hPa 0,0 l/m 0 min 0 min 0 W/m 6,4 km/h (2 Bft) 93,62 %
23.07.2021 00:56 17,2 C 16,1 C 14,5 C 82 % 1020,0 hPa 0,0 l/m 0 min 0 min 0 W/m 9,7 km/h (2 Bft) 95,65 %
23.07.2021 00:58 17,2 C 16,1 C 14,5 C 82 % 1020,0 hPa 0,0 l/m 0 min 0 min 0 W/m 3,2 km/h (1 Bft) 95,74 %
23.07.2021 01:00 17,2 C 16,1 C 14,5 C 82 % 1020,0 hPa 0,0 l/m 0 min 0 min 0 W/m 3,2 km/h (1 Bft) 95,74 %
23.07.2021 01:02 17,1 C 16,1 C 13,9 C 82 % 1020,0 hPa 0,0 l/m 0 min 0 min 0 W/m 6,4 km/h (2 Bft) 93,62 %
23.07.2021 01:04 17,1 C 16,1 C 14,5 C 82 % 1020,1 hPa 0,0 l/m 0 min 0 min 0 W/m 6,4 km/h (2 Bft) 93,62 %
23.07.2021 01:06 17,1 C 16,1 C 14,5 C 82 % 1020,0 hPa 0,0 l/m 0 min 0 min 0 W/m 9,7 km/h (2 Bft) 93,62 %
23.07.2021 01:08 17,1 C 16,1 C 14,5 C 82 % 1020,0 hPa 0,0 l/m 0 min 0 min 0 W/m 6,4 km/h (2 Bft) 93,48 %
23.07.2021 01:10 17,0 C 16,1 C 14,5 C 82 % 1020,0 hPa 0,0 l/m 0 min 0 min 0 W/m 6,4 km/h (2 Bft) 91,49 %
23.07.2021 01:12 17,0 C 16,1 C 14,5 C 82 % 1020,0 hPa 0,0 l/m 0 min 0 min 0 W/m 6,4 km/h (2 Bft) 93,62 %
23.07.2021 01:14 17,0 C 16,1 C 14,5 C 82 % 1020,0 hPa 0,0 l/m 0 min 0 min 0 W/m 6,4 km/h (2 Bft) 93,62 %
23.07.2021 01:16 17,0 C 16,1 C 14,5 C 82 % 1020,0 hPa 0,0 l/m 0 min 0 min 0 W/m 9,7 km/h (2 Bft) 93,62 %
23.07.2021 01:18 17,0 C 16,1 C 14,5 C 82 % 1020,1 hPa 0,0 l/m 0 min 0 min 0 W/m 6,4 km/h (2 Bft) 93,62 %
23.07.2021 01:20 17,0 C 16,1 C 14,5 C 82 % 1020,0 hPa 0,0 l/m 0 min 0 min 0 W/m 6,4 km/h (2 Bft) 93,48 %
23.07.2021 01:22 17,0 C 16,1 C 14,5 C 82 % 1020,1 hPa 0,0 l/m 0 min 0 min 0 W/m 3,2 km/h (1 Bft) 95,74 %
23.07.2021 01:24 17,0 C 16,1 C 14,5 C 82 % 1020,1 hPa 0,0 l/m 0 min 0 min 0 W/m 12,9 km/h (3 Bft) 95,74 %
23.07.2021 01:26 16,9 C 16,1 C 14,5 C 82 % 1020,1 hPa 0,0 l/m 0 min 0 min 0 W/m 6,4 km/h (2 Bft) 93,62 %
23.07.2021 01:28 16,9 C 16,1 C 14,5 C 81 % 1020,0 hPa 0,0 l/m 0 min 0 min 0 W/m 3,2 km/h (1 Bft) 93,62 %
23.07.2021 01:30 16,9 C 16,1 C 14,5 C 82 % 1020,0 hPa 0,0 l/m 0 min 0 min 0 W/m 6,4 km/h (2 Bft) 95,74 %
23.07.2021 01:32 16,9 C 16,1 C 14,5 C 82 % 1020,0 hPa 0,0 l/m 0 min 0 min 0 W/m 3,2 km/h (1 Bft) 95,65 %
23.07.2021 01:34 16,9 C 16,1 C 14,5 C 81 % 1020,0 hPa 0,0 l/m 0 min 0 min 0 W/m 9,7 km/h (2 Bft) 97,87 %
23.07.2021 01:36 16,9 C 16,1 C 14,5 C 81 % 1020,0 hPa 0,0 l/m 0 min 0 min 0 W/m 16,1 km/h (3 Bft) 95,74 %
23.07.2021 01:38 16,9 C 16,1 C 14,5 C 81 % 1020,0 hPa 0,0 l/m 0 min 0 min 0 W/m 6,4 km/h (2 Bft) 95,74 %
23.07.2021 01:40 16,9 C 16,1 C 13,9 C 81 % 1020,1 hPa 0,0 l/m 0 min 0 min 0 W/m 6,4 km/h (2 Bft) 95,74 %
23.07.2021 01:42 16,9 C 16,1 C 13,9 C 81 % 1020,1 hPa 0,0 l/m 0 min 0 min 0 W/m 6,4 km/h (2 Bft) 95,74 %
23.07.2021 01:44 16,9 C 16,1 C 13,9 C 81 % 1020,0 hPa 0,0 l/m 0 min 0 min 0 W/m 9,7 km/h (2 Bft) 95,65 %
23.07.2021 01:46 16,9 C 16,1 C 13,9 C 81 % 1020,0 hPa 0,0 l/m 0 min 0 min 0 W/m 6,4 km/h (2 Bft) 95,74 %
23.07.2021 01:48 16,8 C 16,1 C 13,9 C 82 % 1020,0 hPa 0,0 l/m 0 min 0 min 0 W/m 9,7 km/h (2 Bft) 95,74 %
23.07.2021 01:50 16,8 C 16,1 C 13,9 C 82 % 1020,0 hPa 0,0 l/m 0 min 0 min 0 W/m 6,4 km/h (2 Bft) 100,00 %
23.07.2021 01:52 16,8 C 16,1 C 13,9 C 82 % 1020,1 hPa 0,0 l/m 0 min 0 min 0 W/m 6,4 km/h (2 Bft) 97,87 %
23.07.2021 01:54 16,8 C 16,1 C 13,9 C 82 % 1020,0 hPa 0,0 l/m 0 min 0 min 0 W/m 3,2 km/h (1 Bft) 100,00 %
23.07.2021 01:56 16,8 C 16,1 C 13,9 C 82 % 1020,0 hPa 0,0 l/m 0 min 0 min 0 W/m 6,4 km/h (2 Bft) 100,00 %
23.07.2021 01:58 16,8 C 15,6 C 13,9 C 82 % 1020,1 hPa 0,0 l/m 0 min 0 min 0 W/m 3,2 km/h (1 Bft) 100,00 %
23.07.2021 02:00 16,8 C 15,6 C 13,9 C 82 % 1020,0 hPa 0,0 l/m 0 min 0 min 0 W/m 6,4 km/h (2 Bft) 100,00 %
23.07.2021 02:02 16,7 C 15,6 C 13,9 C 82 % 1020,0 hPa 0,0 l/m 0 min 0 min 0 W/m 6,4 km/h (2 Bft) 100,00 %
23.07.2021 02:04 16,7 C 15,6 C 13,9 C 82 % 1020,0 hPa 0,0 l/m 0 min 0 min 0 W/m 3,2 km/h (1 Bft) 100,00 %
23.07.2021 02:06 16,6 C 15,6 C 13,9 C 82 % 1020,0 hPa 0,0 l/m 0 min 0 min 0 W/m 9,7 km/h (2 Bft) 100,00 %
23.07.2021 02:08 16,6 C 15,6 C 13,9 C 82 % 1020,0 hPa 0,0 l/m 0 min 0 min 0 W/m 9,7 km/h (2 Bft) 97,83 %
23.07.2021 02:10 16,6 C 15,6 C 13,9 C 82 % 1020,0 hPa 0,0 l/m 0 min 0 min 0 W/m 9,7 km/h (2 Bft) 100,00 %
23.07.2021 02:12 16,6 C 15,6 C 13,9 C 82 % 1020,0 hPa 0,0 l/m 0 min 0 min 0 W/m 3,2 km/h (1 Bft) 97,87 %
23.07.2021 02:14 16,6 C 15,6 C 13,9 C 82 % 1020,0 hPa 0,0 l/m 0 min 0 min 0 W/m 9,7 km/h (2 Bft) 100,00 %
23.07.2021 02:16 16,5 C 15,6 C 13,9 C 82 % 1020,0 hPa 0,0 l/m 0 min 0 min 0 W/m 3,2 km/h (1 Bft) 100,00 %
23.07.2021 02:18 16,5 C 15,6 C 13,9 C 82 % 1020,0 hPa 0,0 l/m 0 min 0 min 0 W/m 3,2 km/h (1 Bft) 100,00 %
23.07.2021 02:20 16,5 C 15,6 C 13,9 C 82 % 1020,0 hPa 0,0 l/m 0 min 0 min 0 W/m 3,2 km/h (1 Bft) 97,83 %
23.07.2021 02:22 16,5 C 15,6 C 13,9 C 82 % 1020,0 hPa 0,0 l/m 0 min 0 min 0 W/m 3,2 km/h (1 Bft) 100,00 %
23.07.2021 02:24 16,4 C 15,6 C 13,9 C 83 % 1020,0 hPa 0,0 l/m 0 min 0 min 0 W/m 9,7 km/h (2 Bft) 100,00 %
23.07.2021 02:26 16,4 C 15,6 C 13,9 C 83 % 1020,1 hPa 0,0 l/m 0 min 0 min 0 W/m 3,2 km/h (1 Bft) 97,87 %
23.07.2021 02:28 16,4 C 15,6 C 13,9 C 83 % 1020,1 hPa 0,0 l/m 0 min 0 min 0 W/m 3,2 km/h (1 Bft) 97,87 %
23.07.2021 02:30 16,4 C 15,6 C 13,9 C 83 % 1020,0 hPa 0,0 l/m 0 min 0 min 0 W/m 3,2 km/h (1 Bft) 100,00 %
23.07.2021 02:32 16,4 C 15,6 C 13,9 C 83 % 1020,0 hPa 0,0 l/m 0 min 0 min 0 W/m 3,2 km/h (1 Bft) 100,00 %
23.07.2021 02:34 16,3 C 15,6 C 13,9 C 83 % 1020,0 hPa 0,0 l/m 0 min 0 min 0 W/m 3,2 km/h (1 Bft) 100,00 %
23.07.2021 02:36 16,3 C 15,6 C 13,9 C 83 % 1020,0 hPa 0,0 l/m 0 min 0 min 0 W/m 3,2 km/h (1 Bft) 100,00 %
23.07.2021 02:38 16,3 C 15,6 C 13,9 C 83 % 1020,0 hPa 0,0 l/m 0 min 0 min 0 W/m 3,2 km/h (1 Bft) 100,00 %
23.07.2021 02:40 16,3 C 15,0 C 13,4 C 83 % 1020,0 hPa 0,0 l/m 0 min 0 min 0 W/m 3,2 km/h (1 Bft) 100,00 %
23.07.2021 02:42 16,2 C 15,0 C 13,4 C 83 % 1020,0 hPa 0,0 l/m 0 min 0 min 0 W/m 6,4 km/h (2 Bft) 97,83 %
23.07.2021 02:44 16,2 C 15,0 C 13,4 C 83 % 1019,9 hPa 0,0 l/m 0 min 0 min 0 W/m 6,4 km/h (2 Bft) 100,00 %
23.07.2021 02:46 16,1 C 15,0 C 13,4 C 83 % 1019,9 hPa 0,0 l/m 0 min 0 min 0 W/m 3,2 km/h (1 Bft) 100,00 %
23.07.2021 02:48 16,1 C 15,0 C 13,4 C 83 % 1019,9 hPa 0,0 l/m 0 min 0 min 0 W/m 12,9 km/h (3 Bft) 100,00 %
23.07.2021 02:50 16,1 C 15,0 C 13,4 C 83 % 1019,9 hPa 0,0 l/m 0 min 0 min 0 W/m 3,2 km/h (1 Bft) 100,00 %
23.07.2021 02:52 16,1 C 15,0 C 13,4 C 83 % 1019,9 hPa 0,0 l/m 0 min 0 min 0 W/m 3,2 km/h (1 Bft) 97,87 %
23.07.2021 02:54 16,0 C 15,0 C 13,4 C 83 % 1019,9 hPa 0,0 l/m 0 min 0 min 0 W/m 9,7 km/h (2 Bft) 97,87 %
23.07.2021 02:56 16,0 C 15,0 C 13,4 C 83 % 1019,9 hPa 0,0 l/m 0 min 0 min 0 W/m 3,2 km/h (1 Bft) 100,00 %
23.07.2021 02:58 16,0 C 15,0 C 13,4 C 83 % 1019,9 hPa 0,0 l/m 0 min 0 min 0 W/m 3,2 km/h (1 Bft) 100,00 %
23.07.2021 03:00 16,0 C 15,0 C 13,4 C 83 % 1019,8 hPa 0,0 l/m 0 min 0 min 0 W/m 3,2 km/h (1 Bft) 100,00 %
23.07.2021 03:02 16,0 C 15,0 C 13,4 C 83 % 1019,8 hPa 0,0 l/m 0 min 0 min 0 W/m 3,2 km/h (1 Bft) 100,00 %
23.07.2021 03:04 15,9 C 15,0 C 13,4 C 83 % 1019,8 hPa 0,0 l/m 0 min 0 min 0 W/m 3,2 km/h (1 Bft) 100,00 %
23.07.2021 03:06 15,9 C 15,0 C 13,4 C 83 % 1019,8 hPa 0,0 l/m 0 min 0 min 0 W/m 3,2 km/h (1 Bft) 100,00 %
23.07.2021 03:08 15,9 C 15,0 C 13,4 C 83 % 1019,8 hPa 0,0 l/m 0 min 0 min 0 W/m 3,2 km/h (1 Bft) 100,00 %
23.07.2021 03:10 15,8 C 15,0 C 13,4 C 83 % 1019,8 hPa 0,0 l/m 0 min 0 min 0 W/m 6,4 km/h (2 Bft) 100,00 %
23.07.2021 03:12 15,8 C 15,0 C 13,4 C 84 % 1019,8 hPa 0,0 l/m 0 min 0 min 0 W/m 3,2 km/h (1 Bft) 100,00 %
23.07.2021 03:14 15,8 C 15,0 C 13,4 C 84 % 1019,8 hPa 0,0 l/m 0 min 0 min 0 W/m 3,2 km/h (1 Bft) 100,00 %
23.07.2021 03:16 15,8 C 14,4 C 13,4 C 84 % 1019,8 hPa 0,0 l/m 0 min 0 min 0 W/m 3,2 km/h (1 Bft) 100,00 %
23.07.2021 03:18 15,8 C 14,4 C 13,4 C 84 % 1019,8 hPa 0,0 l/m 0 min 0 min 0 W/m 6,4 km/h (2 Bft) 100,00 %
23.07.2021 03:20 15,7 C 14,4 C 13,4 C 84 % 1019,8 hPa 0,0 l/m 0 min 0 min 0 W/m 3,2 km/h (1 Bft) 100,00 %
23.07.2021 03:22 15,7 C 14,4 C 13,4 C 84 % 1019,8 hPa 0,0 l/m 0 min 0 min 0 W/m 3,2 km/h (1 Bft) 97,83 %
23.07.2021 03:24 15,6 C 14,4 C 13,4 C 84 % 1019,8 hPa 0,0 l/m 0 min 0 min 0 W/m 3,2 km/h (1 Bft) 100,00 %
23.07.2021 03:26 15,6 C 14,4 C 13,4 C 84 % 1019,7 hPa 0,0 l/m 0 min 0 min 0 W/m 3,2 km/h (1 Bft) 100,00 %
23.07.2021 03:28 15,6 C 14,4 C 13,4 C 84 % 1019,7 hPa 0,0 l/m 0 min 0 min 0 W/m 0,0 km/h (0 Bft) 100,00 %
23.07.2021 03:30 15,6 C 14,4 C 13,4 C 84 % 1019,8 hPa 0,0 l/m 0 min 0 min 0 W/m 6,4 km/h (2 Bft) 100,00 %
23.07.2021 03:32 15,6 C 14,4 C 13,4 C 84 % 1019,7 hPa 0,0 l/m 0 min 0 min 0 W/m 0,0 km/h (0 Bft) 97,87 %
23.07.2021 03:34 15,6 C 14,4 C 13,4 C 84 % 1019,7 hPa 0,0 l/m 0 min 0 min 0 W/m 3,2 km/h (1 Bft) 100,00 %
23.07.2021 03:36 15,5 C 14,4 C 13,4 C 84 % 1019,7 hPa 0,0 l/m 0 min 0 min 0 W/m 3,2 km/h (1 Bft) 97,87 %
23.07.2021 03:38 15,5 C 14,4 C 13,4 C 84 % 1019,7 hPa 0,0 l/m 0 min 0 min 0 W/m 0,0 km/h (0 Bft) 97,87 %
23.07.2021 03:40 15,5 C 14,4 C 12,8 C 85 % 1019,7 hPa 0,0 l/m 0 min 0 min 0 W/m 0,0 km/h (0 Bft) 95,74 %
23.07.2021 03:42 15,5 C 14,4 C 12,8 C 85 % 1019,7 hPa 0,0 l/m 0 min 0 min 0 W/m 0,0 km/h (0 Bft) 93,62 %
23.07.2021 03:44 15,5 C 14,4 C 12,8 C 85 % 1019,7 hPa 0,0 l/m 0 min 0 min 0 W/m 3,2 km/h (1 Bft) 93,62 %
23.07.2021 03:46 15,4 C 14,4 C 12,8 C 85 % 1019,7 hPa 0,0 l/m 0 min 0 min 0 W/m 3,2 km/h (1 Bft) 95,65 %
23.07.2021 03:48 15,4 C 14,4 C 12,8 C 85 % 1019,7 hPa 0,0 l/m 0 min 0 min 0 W/m 0,0 km/h (0 Bft) 93,62 %
23.07.2021 03:50 15,4 C 14,4 C 12,8 C 85 % 1019,6 hPa 0,0 l/m 0 min 0 min 0 W/m 3,2 km/h (1 Bft) 95,74 %
23.07.2021 03:52 15,4 C 14,4 C 12,8 C 85 % 1019,7 hPa 0,0 l/m 0 min 0 min 0 W/m 0,0 km/h (0 Bft) 95,74 %
23.07.2021 03:54 15,3 C 14,4 C 12,8 C 85 % 1019,6 hPa 0,0 l/m 0 min 0 min 0 W/m 0,0 km/h (0 Bft) 95,74 %
23.07.2021 03:56 15,3 C 14,4 C 12,8 C 85 % 1019,6 hPa 0,0 l/m 0 min 0 min 0 W/m 3,2 km/h (1 Bft) 95,74 %
23.07.2021 03:58 15,3 C 13,9 C 12,8 C 85 % 1019,6 hPa 0,0 l/m 0 min 0 min 0 W/m 3,2 km/h (1 Bft) 93,48 %
23.07.2021 04:00 15,3 C 13,9 C 12,8 C 85 % 1019,6 hPa 0,0 l/m 0 min 0 min 0 W/m 3,2 km/h (1 Bft) 95,74 %
23.07.2021 04:02 15,2 C 13,9 C 12,8 C 85 % 1019,7 hPa 0,0 l/m 0 min 0 min 0 W/m 3,2 km/h (1 Bft) 100,00 %
23.07.2021 04:04 15,2 C 13,9 C 12,8 C 85 % 1019,6 hPa 0,0 l/m 0 min 0 min 0 W/m 3,2 km/h (1 Bft) 97,87 %
23.07.2021 04:06 15,2 C 13,9 C 12,8 C 85 % 1019,6 hPa 0,0 l/m 0 min 0 min 0 W/m 0,0 km/h (0 Bft) 95,74 %
23.07.2021 04:08 15,2 C 13,9 C 12,8 C 86 % 1019,6 hPa 0,0 l/m 0 min 0 min 0 W/m 0,0 km/h (0 Bft) 95,74 %
23.07.2021 04:10 15,1 C 13,9 C 12,8 C 86 % 1019,6 hPa 0,0 l/m 0 min 0 min 0 W/m 3,2 km/h (1 Bft) 93,48 %
23.07.2021 04:12 15,1 C 13,9 C 12,8 C 86 % 1019,6 hPa 0,0 l/m 0 min 0 min 0 W/m 0,0 km/h (0 Bft) 95,74 %
23.07.2021 04:14 15,1 C 13,9 C 12,8 C 86 % 1019,6 hPa 0,0 l/m 0 min 0 min 0 W/m 0,0 km/h (0 Bft) 97,87 %
23.07.2021 04:16 15,1 C 13,9 C 12,8 C 86 % 1019,6 hPa 0,0 l/m 0 min 0 min 0 W/m 3,2 km/h (1 Bft) 95,74 %
23.07.2021 04:18 15,0 C 13,9 C 12,3 C 86 % 1019,6 hPa 0,0 l/m 0 min 0 min 0 W/m 3,2 km/h (1 Bft) 97,87 %
23.07.2021 04:20 15,0 C 13,9 C 12,3 C 86 % 1019,6 hPa 0,0 l/m 0 min 0 min 0 W/m 0,0 km/h (0 Bft) 97,87 %
23.07.2021 04:22 15,0 C 13,9 C 12,3 C 86 % 1019,6 hPa 0,0 l/m 0 min 0 min 0 W/m 0,0 km/h (0 Bft) 95,65 %
23.07.2021 04:24 15,0 C 13,9 C 12,3 C 86 % 1019,5 hPa 0,0 l/m 0 min 0 min 0 W/m 0,0 km/h (0 Bft) 97,87 %
23.07.2021 04:26 15,0 C 13,9 C 12,3 C 87 % 1019,5 hPa 0,0 l/m 0 min 0 min 0 W/m 0,0 km/h (0 Bft) 97,87 %
23.07.2021 04:28 14,9 C 13,9 C 12,3 C 87 % 1019,5 hPa 0,0 l/m 0 min 0 min 0 W/m 0,0 km/h (0 Bft) 97,87 %
23.07.2021 04:30 14,9 C 13,9 C 12,3 C 87 % 1019,5 hPa 0,0 l/m 0 min 0 min 0 W/m 3,2 km/h (1 Bft) 97,87 %
23.07.2021 04:32 14,9 C 13,9 C 12,3 C 87 % 1019,6 hPa 0,0 l/m 0 min 0 min 0 W/m 3,2 km/h (1 Bft) 97,83 %
23.07.2021 04:34 14,8 C 13,9 C 12,3 C 87 % 1019,5 hPa 0,0 l/m 0 min 0 min 0 W/m 3,2 km/h (1 Bft) 97,87 %
23.07.2021 04:36 14,7 C 13,3 C 12,3 C 87 % 1019,5 hPa 0,0 l/m 0 min 0 min 0 W/m 0,0 km/h (0 Bft) 95,74 %
23.07.2021 04:38 14,6 C 13,3 C 12,3 C 86 % 1019,5 hPa 0,0 l/m 0 min 0 min 0 W/m 0,0 km/h (0 Bft) 97,87 %
23.07.2021 04:40 14,6 C 13,3 C 12,3 C 86 % 1019,5 hPa 0,0 l/m 0 min 0 min 0 W/m 0,0 km/h (0 Bft) 96,23 %
23.07.2021 04:42 14,6 C 13,3 C 12,3 C 87 % 1019,5 hPa 0,0 l/m 0 min 0 min 0 W/m 0,0 km/h (0 Bft) 97,83 %
23.07.2021 04:44 14,6 C 13,3 C 12,3 C 87 % 1019,5 hPa 0,0 l/m 0 min 0 min 0 W/m 0,0 km/h (0 Bft) 100,00 %
23.07.2021 04:46 14,5 C 13,3 C 12,3 C 87 % 1019,5 hPa 0,0 l/m 0 min 0 min 0 W/m 0,0 km/h (0 Bft) 100,00 %
23.07.2021 04:48 14,5 C 13,3 C 12,3 C 87 % 1019,4 hPa 0,0 l/m 0 min 0 min 0 W/m 0,0 km/h (0 Bft) 100,00 %
23.07.2021 04:50 14,5 C 13,3 C 12,3 C 87 % 1019,5 hPa 0,0 l/m 0 min 0 min 0 W/m 0,0 km/h (0 Bft) 100,00 %
23.07.2021 04:52 14,5 C 13,3 C 12,3 C 87 % 1019,4 hPa 0,0 l/m 0 min 0 min 0 W/m 3,2 km/h (1 Bft) 100,00 %
23.07.2021 04:54 14,4 C 13,3 C 12,3 C 87 % 1019,4 hPa 0,0 l/m 0 min 0 min 0 W/m 0,0 km/h (0 Bft) 98,28 %
23.07.2021 04:56 14,4 C 13,3 C 12,3 C 87 % 1019,4 hPa 0,0 l/m 0 min 0 min 0 W/m 0,0 km/h (0 Bft) 100,00 %
23.07.2021 04:58 14,4 C 13,3 C 12,3 C 87 % 1019,3 hPa 0,0 l/m 0 min 0 min 0 W/m 0,0 km/h (0 Bft) 100,00 %
23.07.2021 05:00 14,3 C 13,3 C 12,3 C 88 % 1019,3 hPa 0,0 l/m 0 min 0 min 0 W/m 0,0 km/h (0 Bft) 100,00 %
23.07.2021 05:02 14,3 C 13,3 C 11,7 C 88 % 1019,3 hPa 0,0 l/m 0 min 0 min 0 W/m 0,0 km/h (0 Bft) 100,00 %
23.07.2021 05:04 14,2 C 13,3 C 11,7 C 88 % 1019,3 hPa 0,0 l/m 0 min 0 min 0 W/m 0,0 km/h (0 Bft) 97,87 %
23.07.2021 05:06 14,2 C 13,3 C 11,7 C 88 % 1019,3 hPa 0,0 l/m 0 min 0 min 0 W/m 0,0 km/h (0 Bft) 100,00 %
23.07.2021 05:08 14,2 C 13,3 C 11,7 C 88 % 1019,3 hPa 0,0 l/m 0 min 0 min 0 W/m 0,0 km/h (0 Bft) 100,00 %
23.07.2021 05:10 14,2 C 13,3 C 11,7 C 88 % 1019,3 hPa 0,0 l/m 0 min 0 min 0 W/m 0,0 km/h (0 Bft) 100,00 %
23.07.2021 05:12 14,2 C 13,3 C 11,7 C 88 % 1019,3 hPa 0,0 l/m 0 min 0 min 0 W/m 3,2 km/h (1 Bft) 97,87 %
23.07.2021 05:14 14,2 C 13,3 C 11,7 C 88 % 1019,4 hPa 0,0 l/m 0 min 0 min 0 W/m 3,2 km/h (1 Bft) 100,00 %
23.07.2021 05:16 14,2 C 13,3 C 11,7 C 88 % 1019,4 hPa 0,0 l/m 0 min 0 min 0 W/m 0,0 km/h (0 Bft) 100,00 %
23.07.2021 05:18 14,1 C 13,3 C 11,7 C 88 % 1019,3 hPa 0,0 l/m 0 min 0 min 0 W/m 0,0 km/h (0 Bft) 100,00 %
23.07.2021 05:20 14,0 C 12,8 C 11,7 C 88 % 1019,3 hPa 0,0 l/m 0 min 0 min 0 W/m 3,2 km/h (1 Bft) 100,00 %
23.07.2021 05:22 14,0 C 12,8 C 11,7 C 88 % 1019,3 hPa 0,0 l/m 0 min 0 min 0 W/m 0,0 km/h (0 Bft) 100,00 %
23.07.2021 05:24 14,0 C 12,8 C 11,7 C 88 % 1019,2 hPa 0,0 l/m 0 min 0 min 0 W/m 3,2 km/h (1 Bft) 100,00 %
23.07.2021 05:26 14,0 C 12,8 C 11,7 C 88 % 1019,3 hPa 0,0 l/m 0 min 0 min 0 W/m 0,0 km/h (0 Bft) 100,00 %
23.07.2021 05:28 13,9 C 12,8 C 11,7 C 88 % 1019,2 hPa 0,0 l/m 0 min 0 min 0 W/m 0,0 km/h (0 Bft) 100,00 %
23.07.2021 05:30 13,9 C 12,8 C 11,7 C 89 % 1019,2 hPa 0,0 l/m 0 min 0 min 0 W/m 0,0 km/h (0 Bft) 100,00 %
23.07.2021 05:32 13,9 C 12,8 C 11,7 C 89 % 1019,2 hPa 0,0 l/m 0 min 0 min 0 W/m 3,2 km/h (1 Bft) 100,00 %
23.07.2021 05:34 13,9 C 12,8 C 11,7 C 89 % 1019,2 hPa 0,0 l/m 0 min 0 min 0 W/m 0,0 km/h (0 Bft) 100,00 %
23.07.2021 05:36 13,9 C 12,8 C 11,7 C 89 % 1019,2 hPa 0,0 l/m 0 min 0 min 0 W/m 0,0 km/h (0 Bft) 100,00 %
23.07.2021 05:38 13,8 C 12,8 C 11,7 C 89 % 1019,2 hPa 0,0 l/m 0 min 0 min 0 W/m 3,2 km/h (1 Bft) 100,00 %
23.07.2021 05:40 13,8 C 12,8 C 11,7 C 89 % 1019,2 hPa 0,0 l/m 0 min 0 min 0 W/m 0,0 km/h (0 Bft) 97,83 %
23.07.2021 05:42 13,8 C 12,8 C 11,7 C 89 % 1019,2 hPa 0,0 l/m 0 min 0 min 0 W/m 0,0 km/h (0 Bft) 100,00 %
23.07.2021 05:44 13,8 C 12,8 C 11,7 C 89 % 1019,2 hPa 0,0 l/m 0 min 0 min 0 W/m 0,0 km/h (0 Bft) 97,87 %
23.07.2021 05:46 13,8 C 12,8 C 11,7 C 89 % 1019,2 hPa 0,0 l/m 0 min 0 min 0 W/m 0,0 km/h (0 Bft) 97,87 %
23.07.2021 05:48 13,8 C 12,8 C 11,7 C 89 % 1019,2 hPa 0,0 l/m 0 min 0 min 0 W/m 0,0 km/h (0 Bft) 97,87 %
23.07.2021 05:50 13,7 C 12,8 C 11,7 C 89 % 1019,1 hPa 0,0 l/m 0 min 0 min 3 W/m 0,0 km/h (0 Bft) 97,87 %
23.07.2021 05:52 13,7 C 12,8 C 11,7 C 89 % 1019,2 hPa 0,0 l/m 0 min 0 min 5 W/m 0,0 km/h (0 Bft) 97,83 %
23.07.2021 05:54 13,7 C 12,8 C 11,7 C 89 % 1019,1 hPa 0,0 l/m 0 min 0 min 5 W/m 0,0 km/h (0 Bft) 95,74 %
23.07.2021 05:56 13,7 C 12,8 C 11,7 C 89 % 1019,2 hPa 0,0 l/m 0 min 0 min 6 W/m 0,0 km/h (0 Bft) 95,74 %
23.07.2021 05:58 13,7 C 12,8 C 11,7 C 90 % 1019,1 hPa 0,0 l/m 0 min 0 min 7 W/m 0,0 km/h (0 Bft) 97,87 %
23.07.2021 06:00 13,6 C 12,8 C 11,7 C 90 % 1019,1 hPa 0,0 l/m 0 min 0 min 8 W/m 0,0 km/h (0 Bft) 97,87 %
23.07.2021 06:02 13,6 C 12,8 C 11,7 C 90 % 1019,1 hPa 0,0 l/m 0 min 0 min 9 W/m 0,0 km/h (0 Bft) 97,87 %
23.07.2021 06:04 13,6 C 12,8 C 11,7 C 90 % 1019,1 hPa 0,0 l/m 0 min 0 min 9 W/m 3,2 km/h (1 Bft) 97,83 %
23.07.2021 06:08 13,6 C 12,8 C 11,7 C 90 % 1019,0 hPa 0,0 l/m 0 min 0 min 11 W/m 3,2 km/h (1 Bft) 95,12 %
23.07.2021 06:10 13,6 C 12,8 C 11,7 C 90 % 1019,0 hPa 0,0 l/m 0 min 0 min 11 W/m 0,0 km/h (0 Bft) 97,87 %
23.07.2021 06:12 13,6 C 12,8 C 11,7 C 90 % 1019,0 hPa 0,0 l/m 0 min 0 min 12 W/m 3,2 km/h (1 Bft) 97,87 %
23.07.2021 06:14 13,6 C 12,8 C 11,7 C 90 % 1019,0 hPa 0,0 l/m 0 min 0 min 12 W/m 0,0 km/h (0 Bft) 97,87 %
23.07.2021 06:16 13,5 C 12,8 C 11,7 C 90 % 1019,0 hPa 0,0 l/m 0 min 0 min 13 W/m 0,0 km/h (0 Bft) 97,87 %
23.07.2021 06:18 13,5 C 12,8 C 11,7 C 90 % 1019,0 hPa 0,0 l/m 0 min 0 min 14 W/m 3,2 km/h (1 Bft) 97,83 %
23.07.2021 06:20 13,5 C 12,8 C 11,7 C 90 % 1019,1 hPa 0,0 l/m 0 min 0 min 14 W/m 3,2 km/h (1 Bft) 97,87 %
23.07.2021 06:22 13,5 C 12,8 C 11,7 C 90 % 1019,0 hPa 0,0 l/m 0 min 0 min 16 W/m 3,2 km/h (1 Bft) 97,87 %
23.07.2021 06:24 13,5 C 12,8 C 11,7 C 90 % 1019,0 hPa 0,0 l/m 0 min 0 min 16 W/m 0,0 km/h (0 Bft) 97,87 %
23.07.2021 06:26 13,5 C 12,8 C 11,7 C 90 % 1019,0 hPa 0,0 l/m 0 min 0 min 17 W/m 0,0 km/h (0 Bft) 97,87 %
23.07.2021 06:28 13,5 C 12,8 C 11,7 C 90 % 1019,0 hPa 0,0 l/m 0 min 0 min 18 W/m 0,0 km/h (0 Bft) 98,28 %
23.07.2021 06:30 13,5 C 12,8 C 11,7 C 90 % 1019,0 hPa 0,0 l/m 0 min 0 min 19 W/m 3,2 km/h (1 Bft) 100,00 %
23.07.2021 06:32 13,5 C 12,8 C 11,7 C 90 % 1019,1 hPa 0,0 l/m 0 min 0 min 19 W/m 0,0 km/h (0 Bft) 97,87 %
23.07.2021 06:34 13,5 C 12,8 C 11,7 C 91 % 1019,1 hPa 0,0 l/m 0 min 0 min 21 W/m 0,0 km/h (0 Bft) 100,00 %
23.07.2021 06:36 13,5 C 12,8 C 11,7 C 91 % 1019,1 hPa 0,0 l/m 0 min 0 min 21 W/m 0,0 km/h (0 Bft) 100,00 %
23.07.2021 06:38 13,5 C 12,8 C 11,7 C 91 % 1019,1 hPa 0,0 l/m 0 min 0 min 23 W/m 3,2 km/h (1 Bft) 97,83 %
23.07.2021 06:40 13,6 C 12,8 C 11,7 C 91 % 1019,1 hPa 0,0 l/m 0 min 0 min 23 W/m 0,0 km/h (0 Bft) 100,00 %
23.07.2021 06:42 13,6 C 12,8 C 11,7 C 91 % 1019,0 hPa 0,0 l/m 0 min 0 min 25 W/m 0,0 km/h (0 Bft) 97,83 %
23.07.2021 06:44 13,6 C 12,8 C 11,7 C 91 % 1019,1 hPa 0,0 l/m 0 min 0 min 25 W/m 0,0 km/h (0 Bft) 97,87 %
23.07.2021 06:46 13,6 C 12,8 C 11,7 C 91 % 1019,1 hPa 0,0 l/m 0 min 0 min 25 W/m 0,0 km/h (0 Bft) 100,00 %
23.07.2021 06:48 13,6 C 12,8 C 11,7 C 91 % 1019,1 hPa 0,0 l/m 0 min 0 min 26 W/m 0,0 km/h (0 Bft) 100,00 %
23.07.2021 06:50 13,6 C 12,8 C 11,7 C 91 % 1019,1 hPa 0,0 l/m 0 min 0 min 26 W/m 0,0 km/h (0 Bft) 100,00 %
23.07.2021 06:52 13,6 C 12,8 C 11,7 C 91 % 1019,0 hPa 0,0 l/m 0 min 0 min 28 W/m 0,0 km/h (0 Bft) 100,00 %
23.07.2021 06:54 13,6 C 12,8 C 11,7 C 91 % 1019,0 hPa 0,0 l/m 0 min 0 min 28 W/m 0,0 km/h (0 Bft) 100,00 %
23.07.2021 06:56 13,6 C 13,3 C 11,7 C 91 % 1019,1 hPa 0,0 l/m 0 min 0 min 29 W/m 0,0 km/h (0 Bft) 97,87 %
23.07.2021 06:58 13,6 C 13,3 C 11,7 C 91 % 1019,0 hPa 0,0 l/m 0 min 0 min 30 W/m 0,0 km/h (0 Bft) 100,00 %
23.07.2021 07:00 13,6 C 13,3 C 12,3 C 91 % 1019,0 hPa 0,0 l/m 0 min 0 min 30 W/m 0,0 km/h (0 Bft) 100,00 %
23.07.2021 07:02 13,7 C 13,3 C 12,3 C 91 % 1019,0 hPa 0,0 l/m 0 min 0 min 31 W/m 0,0 km/h (0 Bft) 97,87 %
23.07.2021 07:04 13,7 C 13,3 C 12,3 C 91 % 1019,1 hPa 0,0 l/m 0 min 0 min 32 W/m 0,0 km/h (0 Bft) 100,00 %
23.07.2021 07:06 13,7 C 13,3 C 12,3 C 91 % 1019,0 hPa 0,0 l/m 0 min 0 min 32 W/m 0,0 km/h (0 Bft) 100,00 %
23.07.2021 07:08 13,8 C 13,3 C 12,3 C 91 % 1019,1 hPa 0,0 l/m 0 min 0 min 33 W/m 0,0 km/h (0 Bft) 100,00 %
23.07.2021 07:10 13,8 C 13,3 C 12,3 C 91 % 1019,1 hPa 0,0 l/m 0 min 0 min 33 W/m 3,2 km/h (1 Bft) 100,00 %
23.07.2021 07:12 13,8 C 13,3 C 12,3 C 91 % 1019,1 hPa 0,0 l/m 0 min 0 min 33 W/m 3,2 km/h (1 Bft) 100,00 %
23.07.2021 07:14 13,8 C 13,3 C 12,3 C 91 % 1019,0 hPa 0,0 l/m 0 min 0 min 35 W/m 3,2 km/h (1 Bft) 100,00 %
23.07.2021 07:16 13,9 C 13,9 C 12,3 C 91 % 1019,0 hPa 0,0 l/m 0 min 0 min 35 W/m 3,2 km/h (1 Bft) 100,00 %
23.07.2021 07:18 13,9 C 13,9 C 12,3 C 91 % 1019,1 hPa 0,0 l/m 0 min 0 min 36 W/m 9,7 km/h (2 Bft) 97,83 %
23.07.2021 07:20 13,9 C 13,9 C 12,3 C 91 % 1019,1 hPa 0,0 l/m 0 min 0 min 37 W/m 9,7 km/h (2 Bft) 100,00 %
23.07.2021 07:22 14,0 C 13,9 C 12,3 C 91 % 1019,1 hPa 0,0 l/m 0 min 0 min 37 W/m 9,7 km/h (2 Bft) 97,87 %
23.07.2021 07:24 14,0 C 13,9 C 12,3 C 91 % 1019,1 hPa 0,0 l/m 0 min 0 min 39 W/m 9,7 km/h (2 Bft) 95,74 %
23.07.2021 07:26 14,0 C 13,9 C 12,3 C 91 % 1019,1 hPa 0,0 l/m 0 min 0 min 39 W/m 6,4 km/h (2 Bft) 93,62 %
23.07.2021 07:28 14,1 C 13,9 C 12,8 C 91 % 1019,1 hPa 0,0 l/m 0 min 0 min 40 W/m 9,7 km/h (2 Bft) 93,62 %
23.07.2021 07:30 14,2 C 13,9 C 12,8 C 91 % 1019,1 hPa 0,0 l/m 0 min 0 min 40 W/m 0,0 km/h (0 Bft) 95,65 %
23.07.2021 07:32 14,2 C 13,9 C 12,8 C 91 % 1019,1 hPa 0,0 l/m 0 min 0 min 41 W/m 0,0 km/h (0 Bft) 95,74 %
23.07.2021 07:34 14,2 C 13,9 C 12,8 C 91 % 1019,1 hPa 0,0 l/m 0 min 0 min 42 W/m 0,0 km/h (0 Bft) 93,62 %
23.07.2021 07:36 14,2 C 13,9 C 12,8 C 91 % 1019,1 hPa 0,0 l/m 0 min 0 min 42 W/m 0,0 km/h (0 Bft) 97,87 %
23.07.2021 07:38 14,2 C 13,9 C 12,8 C 91 % 1019,1 hPa 0,0 l/m 0 min 0 min 44 W/m 9,7 km/h (2 Bft) 98,28 %
23.07.2021 07:40 14,2 C 14,4 C 12,8 C 91 % 1019,1 hPa 0,0 l/m 0 min 0 min 44 W/m 6,4 km/h (2 Bft) 91,67 %
23.07.2021 07:42 14,3 C 14,4 C 12,8 C 91 % 1019,1 hPa 0,0 l/m 0 min 0 min 45 W/m 6,4 km/h (2 Bft) 93,48 %
23.07.2021 07:44 14,3 C 14,4 C 12,8 C 91 % 1019,1 hPa 0,0 l/m 0 min 0 min 46 W/m 6,4 km/h (2 Bft) 100,00 %
23.07.2021 07:49 14,4 C 14,4 C 12,8 C 91 % 1019,1 hPa 0,0 l/m 0 min 0 min 46 W/m 3,2 km/h (1 Bft) 94,03 %
23.07.2021 07:50 14,5 C 14,4 C 12,8 C 91 % 1019,1 hPa 0,0 l/m 0 min 0 min 47 W/m 9,7 km/h (2 Bft) 83,33 %
23.07.2021 07:52 14,5 C 14,4 C 12,8 C 91 % 1019,1 hPa 0,0 l/m 0 min 0 min 47 W/m 3,2 km/h (1 Bft) 93,62 %
23.07.2021 07:54 14,5 C 14,4 C 13,4 C 90 % 1019,1 hPa 0,0 l/m 0 min 0 min 49 W/m 9,7 km/h (2 Bft) 95,65 %
23.07.2021 07:56 14,6 C 14,4 C 13,4 C 90 % 1019,1 hPa 0,0 l/m 0 min 0 min 49 W/m 12,9 km/h (3 Bft) 95,74 %
23.07.2021 07:58 14,6 C 14,4 C 13,4 C 90 % 1019,1 hPa 0,0 l/m 0 min 0 min 49 W/m 9,7 km/h (2 Bft) 93,62 %
23.07.2021 08:00 14,7 C 14,4 C 13,4 C 90 % 1019,1 hPa 0,0 l/m 0 min 0 min 74 W/m 12,9 km/h (3 Bft) 95,74 %
23.07.2021 08:02 14,7 C 15,0 C 13,4 C 90 % 1019,1 hPa 0,0 l/m 2 min 0 min 194 W/m 9,7 km/h (2 Bft) 91,49 %
23.07.2021 08:04 14,8 C 15,0 C 13,4 C 90 % 1019,0 hPa 0,0 l/m 2 min 0 min 247 W/m 12,9 km/h (3 Bft) 93,62 %
23.07.2021 08:06 14,8 C 15,0 C 13,4 C 90 % 1019,0 hPa 0,0 l/m 2 min 0 min 254 W/m 6,4 km/h (2 Bft) 95,65 %
23.07.2021 08:08 14,9 C 15,0 C 13,4 C 90 % 1019,0 hPa 0,0 l/m 2 min 0 min 262 W/m 6,4 km/h (2 Bft) 89,83 %
23.07.2021 08:10 14,9 C 15,0 C 13,4 C 90 % 1019,0 hPa 0,0 l/m 2 min 0 min 269 W/m 6,4 km/h (2 Bft) 97,14 %
23.07.2021 08:12 15,0 C 15,0 C 13,4 C 90 % 1019,0 hPa 0,0 l/m 2 min 0 min 276 W/m 9,7 km/h (2 Bft) 93,62 %
23.07.2021 08:14 15,0 C 15,0 C 13,4 C 90 % 1019,0 hPa 0,0 l/m 2 min 0 min 282 W/m 9,7 km/h (2 Bft) 95,74 %
23.07.2021 08:16 15,0 C 15,6 C 13,9 C 90 % 1019,0 hPa 0,0 l/m 2 min 0 min 271 W/m 3,2 km/h (1 Bft) 93,48 %
23.07.2021 08:18 15,1 C 15,6 C 13,9 C 90 % 1019,0 hPa 0,0 l/m 2 min 0 min 277 W/m 6,4 km/h (2 Bft) 95,74 %
23.07.2021 08:20 15,2 C 16,1 C 13,9 C 90 % 1019,0 hPa 0,0 l/m 2 min 0 min 256 W/m 6,4 km/h (2 Bft) 85,11 %
23.07.2021 08:22 15,3 C 16,1 C 13,9 C 90 % 1019,0 hPa 0,0 l/m 2 min 0 min 279 W/m 3,2 km/h (1 Bft) 82,98 %
23.07.2021 08:24 15,4 C 16,7 C 13,9 C 90 % 1019,0 hPa 0,0 l/m 2 min 0 min 309 W/m 3,2 km/h (1 Bft) 95,74 %
23.07.2021 08:26 15,5 C 16,7 C 13,9 C 90 % 1019,0 hPa 0,0 l/m 2 min 0 min 316 W/m 6,4 km/h (2 Bft) 95,74 %
23.07.2021 08:28 15,6 C 17,2 C 13,9 C 89 % 1019,0 hPa 0,0 l/m 2 min 0 min 319 W/m 9,7 km/h (2 Bft) 95,65 %
23.07.2021 08:30 15,8 C 17,8 C 14,5 C 89 % 1019,0 hPa 0,0 l/m 2 min 0 min 328 W/m 9,7 km/h (2 Bft) 93,62 %
23.07.2021 08:32 15,9 C 18,9 C 14,5 C 89 % 1019,0 hPa 0,0 l/m 2 min 0 min 336 W/m 6,4 km/h (2 Bft) 89,36 %
23.07.2021 08:34 16,1 C 18,9 C 14,5 C 89 % 1019,0 hPa 0,0 l/m 2 min 0 min 343 W/m 9,7 km/h (2 Bft) 93,62 %
23.07.2021 08:36 16,3 C 19,4 C 14,5 C 88 % 1019,0 hPa 0,0 l/m 2 min 0 min 348 W/m 12,9 km/h (3 Bft) 95,74 %
23.07.2021 08:38 16,5 C 20,0 C 15,0 C 88 % 1019,0 hPa 0,0 l/m 2 min 0 min 357 W/m 12,9 km/h (3 Bft) 95,74 %
23.07.2021 08:40 16,7 C 20,6 C 15,0 C 87 % 1019,0 hPa 0,0 l/m 2 min 0 min 364 W/m 9,7 km/h (2 Bft) 95,65 %
23.07.2021 08:42 16,9 C 20,6 C 15,0 C 86 % 1019,0 hPa 0,0 l/m 2 min 0 min 366 W/m 16,1 km/h (3 Bft) 95,74 %
23.07.2021 08:44 17,0 C 20,6 C 15,0 C 85 % 1019,0 hPa 0,0 l/m 2 min 0 min 374 W/m 6,4 km/h (2 Bft) 95,74 %
23.07.2021 08:46 17,1 C 21,1 C 15,6 C 85 % 1019,0 hPa 0,0 l/m 2 min 0 min 380 W/m 6,4 km/h (2 Bft) 95,74 %
23.07.2021 08:48 17,3 C 21,1 C 15,6 C 84 % 1019,0 hPa 0,0 l/m 2 min 0 min 386 W/m 6,4 km/h (2 Bft) 93,62 %
23.07.2021 08:50 17,4 C 21,7 C 15,6 C 83 % 1019,0 hPa 0,0 l/m 2 min 0 min 392 W/m 6,4 km/h (2 Bft) 95,74 %
23.07.2021 08:52 17,6 C 21,7 C 16,1 C 83 % 1019,0 hPa 0,0 l/m 2 min 0 min 399 W/m 9,7 km/h (2 Bft) 97,83 %
23.07.2021 08:54 17,8 C 22,2 C 16,7 C 82 % 1019,0 hPa 0,0 l/m 2 min 0 min 404 W/m 6,4 km/h (2 Bft) 95,74 %
23.07.2021 08:56 17,9 C 22,8 C 16,7 C 82 % 1019,0 hPa 0,0 l/m 2 min 0 min 413 W/m 9,7 km/h (2 Bft) 97,87 %
23.07.2021 08:58 18,1 C 22,8 C 17,3 C 82 % 1019,1 hPa 0,0 l/m 2 min 0 min 417 W/m 9,7 km/h (2 Bft) 97,87 %
23.07.2021 09:00 18,2 C 23,3 C 17,3 C 81 % 1019,1 hPa 0,0 l/m 2 min 0 min 423 W/m 6,4 km/h (2 Bft) 95,74 %
23.07.2021 09:02 18,3 C 23,3 C 17,3 C 80 % 1019,1 hPa 0,0 l/m 2 min 0 min 427 W/m 6,4 km/h (2 Bft) 93,62 %
23.07.2021 09:04 18,5 C 23,9 C 17,3 C 80 % 1019,1 hPa 0,0 l/m 2 min 0 min 431 W/m 6,4 km/h (2 Bft) 97,83 %
23.07.2021 09:06 18,6 C 23,9 C 17,8 C 79 % 1019,1 hPa 0,0 l/m 2 min 0 min 437 W/m 9,7 km/h (2 Bft) 93,62 %
23.07.2021 09:08 18,8 C 23,9 C 18,4 C 79 % 1019,2 hPa 0,0 l/m 2 min 0 min 444 W/m 6,4 km/h (2 Bft) 91,53 %
23.07.2021 09:10 18,9 C 24,4 C 18,4 C 79 % 1019,1 hPa 0,0 l/m 2 min 0 min 449 W/m 9,7 km/h (2 Bft) 97,14 %
23.07.2021 09:12 19,0 C 24,4 C 18,4 C 78 % 1019,2 hPa 0,0 l/m 2 min 0 min 455 W/m 6,4 km/h (2 Bft) 97,87 %
23.07.2021 09:14 19,0 C 23,9 C 18,4 C 77 % 1019,2 hPa 0,0 l/m 2 min 0 min 460 W/m 12,9 km/h (3 Bft) 97,87 %
23.07.2021 09:16 19,1 C 24,4 C 18,9 C 77 % 1019,2 hPa 0,0 l/m 2 min 0 min 464 W/m 12,9 km/h (3 Bft) 97,83 %
23.07.2021 09:18 19,2 C 24,4 C 18,9 C 77 % 1019,2 hPa 0,0 l/m 2 min 0 min 471 W/m 9,7 km/h (2 Bft) 97,87 %
23.07.2021 09:20 19,3 C 24,4 C 19,5 C 76 % 1019,2 hPa 0,0 l/m 2 min 0 min 473 W/m 9,7 km/h (2 Bft) 95,74 %
23.07.2021 09:22 19,4 C 25,0 C 19,5 C 77 % 1019,2 hPa 0,0 l/m 2 min 0 min 477 W/m 9,7 km/h (2 Bft) 97,87 %
23.07.2021 09:24 19,4 C 25,0 C 19,5 C 76 % 1019,2 hPa 0,0 l/m 2 min 0 min 483 W/m 6,4 km/h (2 Bft) 97,87 %
23.07.2021 09:26 19,5 C 25,6 C 20,0 C 76 % 1019,1 hPa 0,0 l/m 2 min 0 min 491 W/m 6,4 km/h (2 Bft) 98,18 %
23.07.2021 09:28 19,7 C 25,6 C 20,0 C 76 % 1019,2 hPa 0,0 l/m 2 min 0 min 496 W/m 12,9 km/h (3 Bft) 97,96 %
23.07.2021 09:30 19,8 C 25,6 C 20,0 C 75 % 1019,2 hPa 0,0 l/m 2 min 0 min 501 W/m 9,7 km/h (2 Bft) 97,92 %
23.07.2021 09:32 19,9 C 25,0 C 20,6 C 74 % 1019,2 hPa 0,0 l/m 2 min 0 min 507 W/m 6,4 km/h (2 Bft) 94,29 %
23.07.2021 09:34 19,9 C 25,0 C 20,6 C 74 % 1019,2 hPa 0,0 l/m 2 min 0 min 512 W/m 6,4 km/h (2 Bft) 100,00 %
23.07.2021 09:36 19,9 C 25,0 C 20,6 C 73 % 1019,1 hPa 0,0 l/m 2 min 0 min 514 W/m 9,7 km/h (2 Bft) 100,00 %
23.07.2021 09:38 20,0 C 25,6 C 20,6 C 74 % 1019,1 hPa 0,0 l/m 2 min 0 min 523 W/m 9,7 km/h (2 Bft) 100,00 %
23.07.2021 09:40 20,1 C 26,1 C 20,6 C 75 % 1019,1 hPa 0,0 l/m 2 min 0 min 528 W/m 9,7 km/h (2 Bft) 100,00 %
23.07.2021 09:42 20,2 C 25,0 C 21,1 C 74 % 1019,1 hPa 0,0 l/m 2 min 0 min 532 W/m 9,7 km/h (2 Bft) 100,00 %
23.07.2021 09:44 20,3 C 25,6 C 21,1 C 74 % 1019,1 hPa 0,0 l/m 2 min 0 min 537 W/m 16,1 km/h (3 Bft) 100,00 %
23.07.2021 09:46 20,4 C 25,0 C 20,6 C 72 % 1019,1 hPa 0,0 l/m 2 min 0 min 541 W/m 16,1 km/h (3 Bft) 97,87 %
23.07.2021 09:48 20,4 C 25,0 C 21,1 C 72 % 1019,1 hPa 0,0 l/m 2 min 0 min 546 W/m 6,4 km/h (2 Bft) 97,87 %
23.07.2021 09:50 20,5 C 24,4 C 21,1 C 72 % 1019,1 hPa 0,0 l/m 2 min 0 min 557 W/m 9,7 km/h (2 Bft) 100,00 %
23.07.2021 09:52 20,5 C 23,9 C 21,1 C 72 % 1019,1 hPa 0,0 l/m 2 min 0 min 558 W/m 9,7 km/h (2 Bft) 100,00 %
23.07.2021 09:54 20,5 C 23,9 C 20,6 C 71 % 1019,1 hPa 0,0 l/m 2 min 0 min 565 W/m 12,9 km/h (3 Bft) 100,00 %
23.07.2021 09:56 20,5 C 23,9 C 21,1 C 71 % 1019,0 hPa 0,0 l/m 2 min 0 min 570 W/m 12,9 km/h (3 Bft) 100,00 %
23.07.2021 09:58 20,5 C 23,9 C 21,1 C 71 % 1019,0 hPa 0,0 l/m 2 min 0 min 582 W/m 12,9 km/h (3 Bft) 97,87 %
23.07.2021 10:00 20,5 C 23,9 C 21,1 C 71 % 1019,0 hPa 0,0 l/m 2 min 0 min 588 W/m 9,7 km/h (2 Bft) 100,00 %
23.07.2021 10:02 20,5 C 23,3 C 21,1 C 71 % 1019,0 hPa 0,0 l/m 2 min 0 min 595 W/m 16,1 km/h (3 Bft) 97,87 %
23.07.2021 10:04 20,6 C 23,9 C 21,1 C 70 % 1019,0 hPa 0,0 l/m 2 min 0 min 600 W/m 9,7 km/h (2 Bft) 97,87 %
23.07.2021 10:06 20,6 C 24,4 C 20,6 C 70 % 1019,1 hPa 0,0 l/m 2 min 0 min 604 W/m 9,7 km/h (2 Bft) 97,87 %
23.07.2021 10:08 20,8 C 24,4 C 20,6 C 70 % 1019,0 hPa 0,0 l/m 2 min 0 min 608 W/m 12,9 km/h (3 Bft) 95,74 %
23.07.2021 10:10 20,8 C 25,0 C 20,6 C 71 % 1019,0 hPa 0,0 l/m 2 min 0 min 608 W/m 9,7 km/h (2 Bft) 95,74 %
23.07.2021 10:12 20,9 C 25,0 C 20,0 C 70 % 1019,0 hPa 0,0 l/m 2 min 0 min 618 W/m 9,7 km/h (2 Bft) 97,87 %
23.07.2021 10:14 20,9 C 25,0 C 20,6 C 69 % 1019,0 hPa 0,0 l/m 2 min 0 min 622 W/m 9,7 km/h (2 Bft) 97,83 %
23.07.2021 10:16 20,9 C 25,0 C 21,1 C 69 % 1019,0 hPa 0,0 l/m 2 min 0 min 625 W/m 6,4 km/h (2 Bft) 97,87 %
23.07.2021 10:18 20,9 C 25,0 C 20,6 C 69 % 1019,0 hPa 0,0 l/m 2 min 0 min 632 W/m 6,4 km/h (2 Bft) 97,87 %
23.07.2021 10:20 21,0 C 25,6 C 20,6 C 69 % 1019,0 hPa 0,0 l/m 2 min 0 min 636 W/m 6,4 km/h (2 Bft) 97,87 %
23.07.2021 10:22 21,0 C 25,6 C 20,0 C 69 % 1019,0 hPa 0,0 l/m 2 min 0 min 637 W/m 9,7 km/h (2 Bft) 97,87 %
23.07.2021 10:24 21,0 C 24,4 C 20,0 C 68 % 1019,0 hPa 0,0 l/m 2 min 0 min 639 W/m 9,7 km/h (2 Bft) 91,49 %
23.07.2021 10:26 20,9 C 24,4 C 20,0 C 69 % 1019,0 hPa 0,0 l/m 2 min 0 min 645 W/m 6,4 km/h (2 Bft) 97,83 %
23.07.2021 10:28 20,9 C 24,4 C 20,6 C 69 % 1019,0 hPa 0,0 l/m 2 min 0 min 642 W/m 9,7 km/h (2 Bft) 95,74 %
23.07.2021 10:30 21,0 C 24,4 C 20,6 C 70 % 1018,9 hPa 0,0 l/m 2 min 0 min 654 W/m 6,4 km/h (2 Bft) 97,87 %
23.07.2021 10:32 21,0 C 23,9 C 20,6 C 69 % 1018,9 hPa 0,0 l/m 2 min 0 min 661 W/m 3,2 km/h (1 Bft) 97,87 %
23.07.2021 10:34 21,0 C 23,3 C 21,1 C 70 % 1018,9 hPa 0,0 l/m 2 min 0 min 665 W/m 9,7 km/h (2 Bft) 97,87 %
23.07.2021 10:36 21,0 C 23,3 C 21,1 C 69 % 1018,9 hPa 0,0 l/m 2 min 0 min 669 W/m 9,7 km/h (2 Bft) 95,74 %
23.07.2021 10:38 21,1 C 22,8 C 21,7 C 69 % 1018,9 hPa 0,0 l/m 2 min 0 min 672 W/m 16,1 km/h (3 Bft) 97,83 %
23.07.2021 10:40 21,1 C 22,8 C 22,3 C 69 % 1018,8 hPa 0,0 l/m 2 min 0 min 679 W/m 9,7 km/h (2 Bft) 97,87 %
23.07.2021 10:42 21,2 C 22,8 C 22,8 C 69 % 1018,9 hPa 0,0 l/m 2 min 0 min 683 W/m 9,7 km/h (2 Bft) 95,74 %
23.07.2021 10:44 21,3 C 22,8 C 23,9 C 69 % 1018,9 hPa 0,0 l/m 2 min 0 min 686 W/m 9,7 km/h (2 Bft) 95,74 %
23.07.2021 10:46 21,3 C 22,2 C 23,4 C 68 % 1018,9 hPa 0,0 l/m 2 min 0 min 690 W/m 16,1 km/h (3 Bft) 100,00 %
23.07.2021 10:48 21,2 C 21,7 C 24,5 C 67 % 1018,8 hPa 0,0 l/m 2 min 0 min 695 W/m 12,9 km/h (3 Bft) 100,00 %
23.07.2021 10:50 21,1 C 21,7 C 22,8 C 67 % 1018,8 hPa 0,0 l/m 2 min 0 min 698 W/m 16,1 km/h (3 Bft) 100,00 %
23.07.2021 10:52 21,1 C 21,7 C 22,3 C 67 % 1018,9 hPa 0,0 l/m 2 min 0 min 697 W/m 16,1 km/h (3 Bft) 100,00 %
23.07.2021 10:54 21,1 C 21,7 C 21,1 C 67 % 1018,8 hPa 0,0 l/m 2 min 0 min 703 W/m 9,7 km/h (2 Bft) 97,87 %
23.07.2021 10:56 21,1 C 22,2 C 20,6 C 67 % 1018,8 hPa 0,0 l/m 2 min 0 min 706 W/m 16,1 km/h (3 Bft) 100,00 %
23.07.2021 10:58 21,1 C 22,2 C 20,6 C 68 % 1018,7 hPa 0,0 l/m 2 min 0 min 705 W/m 9,7 km/h (2 Bft) 100,00 %
23.07.2021 11:00 21,2 C 22,8 C 20,6 C 67 % 1018,7 hPa 0,0 l/m 2 min 0 min 713 W/m 9,7 km/h (2 Bft) 100,00 %
23.07.2021 11:02 21,3 C 22,8 C 21,7 C 68 % 1018,7 hPa 0,0 l/m 2 min 0 min 716 W/m 12,9 km/h (3 Bft) 100,00 %
23.07.2021 11:04 21,3 C 22,8 C 22,3 C 67 % 1018,7 hPa 0,0 l/m 2 min 0 min 720 W/m 9,7 km/h (2 Bft) 100,00 %
23.07.2021 11:06 21,4 C 22,8 C 21,7 C 66 % 1018,6 hPa 0,0 l/m 2 min 0 min 725 W/m 9,7 km/h (2 Bft) 100,00 %
23.07.2021 11:08 21,4 C 23,3 C 21,1 C 68 % 1018,6 hPa 0,0 l/m 2 min 0 min 729 W/m 9,7 km/h (2 Bft) 100,00 %
23.07.2021 11:10 21,5 C 23,9 C 21,1 C 67 % 1018,6 hPa 0,0 l/m 2 min 0 min 732 W/m 9,7 km/h (2 Bft) 97,92 %
23.07.2021 11:12 21,6 C 24,4 C 21,1 C 67 % 1018,6 hPa 0,0 l/m 2 min 0 min 737 W/m 9,7 km/h (2 Bft) 100,00 %
23.07.2021 11:14 21,7 C 25,0 C 20,6 C 67 % 1018,5 hPa 0,0 l/m 2 min 0 min 743 W/m 9,7 km/h (2 Bft) 100,00 %
23.07.2021 11:16 21,8 C 25,0 C 20,6 C 68 % 1018,5 hPa 0,0 l/m 2 min 0 min 743 W/m 9,7 km/h (2 Bft) 100,00 %
23.07.2021 11:18 21,8 C 25,0 C 20,0 C 66 % 1018,5 hPa 0,0 l/m 2 min 0 min 752 W/m 12,9 km/h (3 Bft) 100,00 %
23.07.2021 11:20 21,9 C 25,0 C 20,0 C 66 % 1018,5 hPa 0,0 l/m 2 min 0 min 755 W/m 9,7 km/h (2 Bft) 100,00 %
23.07.2021 11:22 22,0 C 25,0 C 20,0 C 67 % 1018,5 hPa 0,0 l/m 2 min 0 min 772 W/m 12,9 km/h (3 Bft) 97,83 %
23.07.2021 11:24 22,0 C 25,0 C 21,1 C 66 % 1018,4 hPa 0,0 l/m 2 min 0 min 758 W/m 12,9 km/h (3 Bft) 100,00 %
23.07.2021 11:26 22,1 C 24,4 C 21,1 C 67 % 1018,4 hPa 0,0 l/m 2 min 0 min 767 W/m 9,7 km/h (2 Bft) 93,62 %
23.07.2021 11:28 22,1 C 24,4 C 20,6 C 66 % 1018,4 hPa 0,0 l/m 2 min 0 min 775 W/m 9,7 km/h (2 Bft) 97,67 %
23.07.2021 11:30 22,3 C 25,0 C 20,6 C 66 % 1018,4 hPa 0,0 l/m 2 min 0 min 778 W/m 9,7 km/h (2 Bft) 97,87 %
23.07.2021 11:32 22,4 C 24,4 C 20,0 C 65 % 1018,4 hPa 0,0 l/m 2 min 0 min 779 W/m 6,4 km/h (2 Bft) 95,83 %
23.07.2021 11:34 22,4 C 24,4 C 20,0 C 65 % 1018,4 hPa 0,0 l/m 2 min 0 min 794 W/m 12,9 km/h (3 Bft) 95,74 %
23.07.2021 11:36 22,5 C 25,0 C 20,0 C 65 % 1018,3 hPa 0,0 l/m 2 min 0 min 784 W/m 12,9 km/h (3 Bft) 97,83 %
23.07.2021 11:38 22,5 C 25,6 C 20,6 C 66 % 1018,3 hPa 0,0 l/m 2 min 0 min 785 W/m 9,7 km/h (2 Bft) 95,83 %
23.07.2021 11:40 22,6 C 25,6 C 20,6 C 66 % 1018,3 hPa 0,0 l/m 2 min 0 min 793 W/m 12,9 km/h (3 Bft) 95,74 %
23.07.2021 11:42 22,6 C 26,1 C 20,0 C 66 % 1018,3 hPa 0,0 l/m 2 min 0 min 790 W/m 9,7 km/h (2 Bft) 91,49 %
23.07.2021 11:44 22,7 C 26,7 C 20,0 C 64 % 1018,2 hPa 0,0 l/m 2 min 0 min 789 W/m 9,7 km/h (2 Bft) 97,87 %
23.07.2021 11:46 22,7 C 26,7 C 20,6 C 64 % 1018,2 hPa 0,0 l/m 2 min 0 min 797 W/m 16,1 km/h (3 Bft) 97,87 %
23.07.2021 11:48 22,8 C 26,7 C 21,1 C 64 % 1018,2 hPa 0,0 l/m 2 min 0 min 798 W/m 6,4 km/h (2 Bft) 97,83 %
23.07.2021 11:50 22,8 C 26,7 C 21,7 C 65 % 1018,1 hPa 0,0 l/m 2 min 0 min 800 W/m 9,7 km/h (2 Bft) 97,87 %
23.07.2021 11:52 22,9 C 26,7 C 22,3 C 64 % 1018,2 hPa 0,0 l/m 2 min 0 min 804 W/m 19,3 km/h (3 Bft) 97,87 %
23.07.2021 11:54 22,9 C 26,1 C 23,4 C 63 % 1018,2 hPa 0,0 l/m 2 min 0 min 810 W/m 6,4 km/h (2 Bft) 97,87 %
23.07.2021 11:56 22,8 C 26,1 C 24,5 C 63 % 1018,1 hPa 0,0 l/m 2 min 0 min 814 W/m 3,2 km/h (1 Bft) 97,87 %
23.07.2021 11:58 22,7 C 25,6 C 24,5 C 64 % 1018,1 hPa 0,0 l/m 2 min 0 min 814 W/m 12,9 km/h (3 Bft) 95,74 %
23.07.2021 12:00 22,7 C 26,1 C 23,4 C 64 % 1018,1 hPa 0,0 l/m 2 min 0 min 807 W/m 9,7 km/h (2 Bft) 97,83 %
23.07.2021 12:02 22,8 C 25,6 C 22,3 C 63 % 1018,1 hPa 0,0 l/m 2 min 0 min 815 W/m 9,7 km/h (2 Bft) 97,92 %
23.07.2021 12:04 22,8 C 26,1 C 21,7 C 63 % 1018,0 hPa 0,0 l/m 2 min 0 min 825 W/m 9,7 km/h (2 Bft) 97,87 %
23.07.2021 12:08 23,0 C 26,1 C 21,7 C 64 % 1018,0 hPa 0,0 l/m 4 min 0 min 827 W/m 9,7 km/h (2 Bft) 97,87 %
23.07.2021 12:10 23,1 C 26,7 C 21,7 C 64 % 1017,9 hPa 0,0 l/m 2 min 0 min 828 W/m 9,7 km/h (2 Bft) 97,87 %
23.07.2021 12:12 23,3 C 26,7 C 22,3 C 65 % 1017,9 hPa 0,0 l/m 2 min 0 min 836 W/m 9,7 km/h (2 Bft) 97,83 %
23.07.2021 12:14 23,3 C 26,7 C 23,4 C 63 % 1017,9 hPa 0,0 l/m 2 min 0 min 833 W/m 12,9 km/h (3 Bft) 93,62 %
23.07.2021 12:16 23,4 C 26,7 C 24,5 C 63 % 1017,9 hPa 0,0 l/m 2 min 0 min 837 W/m 6,4 km/h (2 Bft) 93,62 %
23.07.2021 12:18 23,5 C 26,7 C 26,1 C 63 % 1017,9 hPa 0,0 l/m 2 min 0 min 836 W/m 9,7 km/h (2 Bft) 91,49 %
23.07.2021 12:20 23,6 C 26,7 C 27,8 C 63 % 1017,9 hPa 0,0 l/m 2 min 0 min 843 W/m 9,7 km/h (2 Bft) 91,49 %
23.07.2021 12:22 23,7 C 26,7 C 29,5 C 62 % 1017,8 hPa 0,0 l/m 2 min 0 min 845 W/m 9,7 km/h (2 Bft) 85,11 %
23.07.2021 12:24 23,5 C 25,6 C 28,4 C 61 % 1017,9 hPa 0,0 l/m 2 min 0 min 855 W/m 16,1 km/h (3 Bft) 89,13 %
23.07.2021 12:26 23,4 C 26,1 C 29,5 C 63 % 1017,8 hPa 0,0 l/m 2 min 0 min 850 W/m 6,4 km/h (2 Bft) 65,96 %
23.07.2021 12:28 23,4 C 26,1 C 29,5 C 62 % 1017,8 hPa 0,0 l/m 2 min 0 min 847 W/m 25,7 km/h (4 Bft) 72,92 %
23.07.2021 12:30 23,5 C 25,6 C 28,9 C 63 % 1017,8 hPa 0,0 l/m 2 min 0 min 847 W/m 16,1 km/h (3 Bft) 95,74 %
23.07.2021 12:32 23,5 C 26,1 C 29,5 C 63 % 1017,8 hPa 0,0 l/m 2 min 0 min 850 W/m 9,7 km/h (2 Bft) 74,47 %
23.07.2021 12:34 23,6 C 26,7 C 29,5 C 63 % 1017,7 hPa 0,0 l/m 2 min 0 min 856 W/m 6,4 km/h (2 Bft) 82,61 %
23.07.2021 12:36 23,7 C 26,7 C 30,0 C 63 % 1017,8 hPa 0,0 l/m 2 min 0 min 849 W/m 6,4 km/h (2 Bft) 74,47 %
23.07.2021 12:38 23,8 C 27,2 C 31,1 C 62 % 1017,8 hPa 0,0 l/m 2 min 0 min 854 W/m 6,4 km/h (2 Bft) 74,47 %
23.07.2021 12:40 23,9 C 27,2 C 30,0 C 62 % 1017,8 hPa 0,0 l/m 2 min 0 min 858 W/m 12,9 km/h (3 Bft) 80,85 %
23.07.2021 12:42 23,9 C 26,7 C 30,0 C 61 % 1017,7 hPa 0,0 l/m 2 min 0 min 855 W/m 9,7 km/h (2 Bft) 89,36 %
23.07.2021 12:44 23,9 C 26,1 C 29,5 C 60 % 1017,7 hPa 0,0 l/m 2 min 0 min 861 W/m 12,9 km/h (3 Bft) 93,62 %
23.07.2021 12:46 23,9 C 26,1 C 29,5 C 60 % 1017,7 hPa 0,0 l/m 2 min 0 min 867 W/m 12,9 km/h (3 Bft) 84,78 %
23.07.2021 12:48 23,9 C 26,7 C 29,5 C 62 % 1017,7 hPa 0,0 l/m 2 min 0 min 864 W/m 9,7 km/h (2 Bft) 95,74 %
23.07.2021 12:50 23,9 C 26,7 C 30,0 C 61 % 1017,7 hPa 0,0 l/m 2 min 0 min 861 W/m 9,7 km/h (2 Bft) 91,49 %
23.07.2021 12:52 24,0 C 27,2 C 30,0 C 62 % 1017,6 hPa 0,0 l/m 2 min 0 min 863 W/m 9,7 km/h (2 Bft) 76,60 %
23.07.2021 12:54 24,1 C 26,7 C 28,9 C 61 % 1017,7 hPa 0,0 l/m 2 min 0 min 877 W/m 9,7 km/h (2 Bft) 65,96 %
23.07.2021 12:56 24,1 C 26,1 C 28,4 C 60 % 1017,7 hPa 0,0 l/m 2 min 0 min 874 W/m 12,9 km/h (3 Bft) 87,23 %
23.07.2021 12:58 24,1 C 26,1 C 27,3 C 60 % 1017,6 hPa 0,0 l/m 2 min 0 min 875 W/m 12,9 km/h (3 Bft) 89,13 %
23.07.2021 13:00 24,1 C 26,1 C 26,7 C 61 % 1017,6 hPa 0,0 l/m 2 min 0 min 875 W/m 6,4 km/h (2 Bft) 87,23 %
23.07.2021 13:02 24,3 C 26,7 C 26,7 C 59 % 1017,6 hPa 0,0 l/m 2 min 0 min 881 W/m 6,4 km/h (2 Bft) 93,62 %
23.07.2021 13:04 24,3 C 26,1 C 26,1 C 59 % 1017,6 hPa 0,0 l/m 2 min 0 min 882 W/m 6,4 km/h (2 Bft) 91,67 %
23.07.2021 13:06 24,4 C 26,7 C 25,6 C 58 % 1017,5 hPa 0,0 l/m 2 min 0 min 874 W/m 12,9 km/h (3 Bft) 89,36 %
23.07.2021 13:08 24,4 C 26,7 C 24,5 C 59 % 1017,5 hPa 0,0 l/m 2 min 0 min 880 W/m 12,9 km/h (3 Bft) 94,83 %
23.07.2021 13:10 24,5 C 26,7 C 23,9 C 59 % 1017,5 hPa 0,0 l/m 2 min 0 min 884 W/m 9,7 km/h (2 Bft) 94,44 %
23.07.2021 13:12 24,6 C 26,1 C 23,4 C 59 % 1017,4 hPa 0,0 l/m 2 min 0 min 883 W/m 16,1 km/h (3 Bft) 95,65 %
23.07.2021 13:14 24,6 C 26,1 C 22,8 C 58 % 1017,5 hPa 0,0 l/m 2 min 0 min 885 W/m 12,9 km/h (3 Bft) 95,74 %
23.07.2021 13:16 24,6 C 26,7 C 22,8 C 57 % 1017,4 hPa 0,0 l/m 2 min 0 min 891 W/m 9,7 km/h (2 Bft) 96,61 %
23.07.2021 13:18 24,6 C 26,1 C 22,8 C 57 % 1017,4 hPa 0,0 l/m 2 min 0 min 892 W/m 12,9 km/h (3 Bft) 97,14 %
23.07.2021 13:20 24,6 C 26,1 C 23,4 C 57 % 1017,4 hPa 0,0 l/m 2 min 0 min 877 W/m 6,4 km/h (2 Bft) 95,74 %
23.07.2021 13:22 24,6 C 26,1 C 23,4 C 58 % 1017,3 hPa 0,0 l/m 2 min 0 min 883 W/m 9,7 km/h (2 Bft) 97,87 %
23.07.2021 13:24 24,7 C 26,1 C 23,4 C 57 % 1017,3 hPa 0,0 l/m 2 min 0 min 890 W/m 12,9 km/h (3 Bft) 97,83 %
23.07.2021 13:26 24,6 C 26,1 C 23,4 C 56 % 1017,2 hPa 0,0 l/m 2 min 0 min 888 W/m 12,9 km/h (3 Bft) 93,62 %
23.07.2021 13:28 24,6 C 26,1 C 22,8 C 57 % 1017,2 hPa 0,0 l/m 2 min 0 min 889 W/m 9,7 km/h (2 Bft) 95,74 %
23.07.2021 13:30 24,6 C 27,2 C 23,9 C 57 % 1017,2 hPa 0,0 l/m 2 min 0 min 893 W/m 6,4 km/h (2 Bft) 95,74 %
23.07.2021 13:32 24,7 C 26,7 C 24,5 C 57 % 1017,2 hPa 0,0 l/m 2 min 0 min 893 W/m 12,9 km/h (3 Bft) 95,74 %
23.07.2021 13:34 24,8 C 26,7 C 25,6 C 58 % 1017,2 hPa 0,0 l/m 2 min 0 min 890 W/m 9,7 km/h (2 Bft) 96,55 %
23.07.2021 13:36 24,8 C 27,2 C 26,7 C 58 % 1017,1 hPa 0,0 l/m 2 min 0 min 887 W/m 6,4 km/h (2 Bft) 100,00 %
23.07.2021 13:38 24,9 C 27,2 C 27,3 C 59 % 1017,1 hPa 0,0 l/m 2 min 0 min 887 W/m 9,7 km/h (2 Bft) 93,62 %
23.07.2021 13:40 25,0 C 27,2 C 27,8 C 58 % 1017,2 hPa 0,0 l/m 2 min 0 min 885 W/m 9,7 km/h (2 Bft) 97,14 %
23.07.2021 13:42 25,0 C 27,2 C 28,4 C 57 % 1017,1 hPa 0,0 l/m 2 min 0 min 884 W/m 9,7 km/h (2 Bft) 97,87 %
23.07.2021 13:44 25,0 C 27,2 C 29,5 C 57 % 1017,0 hPa 0,0 l/m 2 min 0 min 889 W/m 6,4 km/h (2 Bft) 100,00 %
23.07.2021 13:46 25,1 C 27,8 C 30,0 C 58 % 1017,0 hPa 0,0 l/m 2 min 0 min 895 W/m 16,1 km/h (3 Bft) 93,62 %
23.07.2021 13:48 25,1 C 27,8 C 29,5 C 58 % 1016,9 hPa 0,0 l/m 2 min 0 min 892 W/m 9,7 km/h (2 Bft) 97,83 %
23.07.2021 13:50 25,1 C 28,3 C 29,5 C 58 % 1016,9 hPa 0,0 l/m 2 min 0 min 892 W/m 9,7 km/h (2 Bft) 97,87 %
23.07.2021 13:52 25,2 C 28,9 C 30,6 C 58 % 1016,9 hPa 0,0 l/m 2 min 0 min 893 W/m 6,4 km/h (2 Bft) 100,00 %
23.07.2021 13:54 25,3 C 28,3 C 30,6 C 57 % 1016,9 hPa 0,0 l/m 2 min 0 min 892 W/m 16,1 km/h (3 Bft) 100,00 %
23.07.2021 13:56 25,3 C 28,3 C 28,9 C 56 % 1016,8 hPa 0,0 l/m 2 min 0 min 884 W/m 9,7 km/h (2 Bft) 97,87 %
23.07.2021 13:58 25,4 C 28,9 C 27,8 C 57 % 1016,9 hPa 0,0 l/m 2 min 0 min 883 W/m 12,9 km/h (3 Bft) 100,00 %
23.07.2021 14:00 25,4 C 28,9 C 26,7 C 55 % 1016,8 hPa 0,0 l/m 2 min 0 min 881 W/m 9,7 km/h (2 Bft) 100,00 %
23.07.2021 14:02 25,3 C 28,9 C 26,1 C 55 % 1016,8 hPa 0,0 l/m 2 min 0 min 885 W/m 12,9 km/h (3 Bft) 100,00 %
23.07.2021 14:04 25,3 C 28,3 C 25,6 C 56 % 1016,8 hPa 0,0 l/m 2 min 0 min 883 W/m 9,7 km/h (2 Bft) 100,00 %
23.07.2021 14:06 25,3 C 28,3 C 24,5 C 56 % 1016,7 hPa 0,0 l/m 2 min 0 min 887 W/m 12,9 km/h (3 Bft) 97,87 %
23.07.2021 14:08 25,3 C 28,3 C 23,9 C 57 % 1016,7 hPa 0,0 l/m 2 min 0 min 889 W/m 12,9 km/h (3 Bft) 100,00 %
23.07.2021 14:10 25,3 C 27,8 C 23,4 C 56 % 1016,7 hPa 0,0 l/m 2 min 0 min 876 W/m 12,9 km/h (3 Bft) 100,00 %
23.07.2021 14:12 25,3 C 28,3 C 22,8 C 56 % 1016,7 hPa 0,0 l/m 2 min 0 min 885 W/m 9,7 km/h (2 Bft) 100,00 %
23.07.2021 14:14 25,4 C 28,9 C 22,8 C 57 % 1016,6 hPa 0,0 l/m 2 min 0 min 876 W/m 12,9 km/h (3 Bft) 100,00 %
23.07.2021 14:16 25,4 C 29,4 C 22,8 C 56 % 1016,7 hPa 0,0 l/m 2 min 0 min 880 W/m 9,7 km/h (2 Bft) 100,00 %
23.07.2021 14:18 25,5 C 29,4 C 22,8 C 56 % 1016,6 hPa 0,0 l/m 2 min 0 min 880 W/m 12,9 km/h (3 Bft) 100,00 %
23.07.2021 14:20 25,6 C 28,9 C 22,8 C 56 % 1016,6 hPa 0,0 l/m 2 min 0 min 877 W/m 16,1 km/h (3 Bft) 100,00 %
23.07.2021 14:22 25,6 C 28,9 C 22,8 C 55 % 1016,5 hPa 0,0 l/m 2 min 0 min 879 W/m 9,7 km/h (2 Bft) 100,00 %
23.07.2021 14:24 25,6 C 28,9 C 22,8 C 56 % 1016,4 hPa 0,0 l/m 2 min 0 min 878 W/m 6,4 km/h (2 Bft) 100,00 %
23.07.2021 14:26 25,8 C 29,4 C 22,8 C 56 % 1016,4 hPa 0,0 l/m 2 min 0 min 876 W/m 12,9 km/h (3 Bft) 97,87 %
23.07.2021 14:28 25,8 C 28,9 C 22,8 C 56 % 1016,4 hPa 0,0 l/m 2 min 0 min 879 W/m 12,9 km/h (3 Bft) 100,00 %
23.07.2021 14:30 25,8 C 28,9 C 22,8 C 55 % 1016,4 hPa 0,0 l/m 2 min 0 min 881 W/m 12,9 km/h (3 Bft) 100,00 %
23.07.2021 14:32 25,6 C 28,9 C 22,3 C 54 % 1016,4 hPa 0,0 l/m 2 min 0 min 878 W/m 12,9 km/h (3 Bft) 100,00 %
23.07.2021 14:34 25,6 C 28,9 C 22,8 C 56 % 1016,4 hPa 0,0 l/m 2 min 0 min 880 W/m 22,5 km/h (4 Bft) 100,00 %
23.07.2021 14:36 25,8 C 29,4 C 22,8 C 55 % 1016,2 hPa 0,0 l/m 2 min 0 min 878 W/m 12,9 km/h (3 Bft) 100,00 %
23.07.2021 14:38 25,9 C 30,0 C 22,8 C 56 % 1016,2 hPa 0,0 l/m 2 min 0 min 880 W/m 12,9 km/h (3 Bft) 100,00 %
23.07.2021 14:40 26,0 C 29,4 C 22,8 C 55 % 1016,2 hPa 0,0 l/m 2 min 0 min 879 W/m 19,3 km/h (3 Bft) 97,87 %
23.07.2021 14:42 26,0 C 30,0 C 22,8 C 55 % 1016,1 hPa 0,0 l/m 2 min 0 min 872 W/m 9,7 km/h (2 Bft) 97,87 %
23.07.2021 14:44 26,1 C 30,0 C 22,8 C 55 % 1016,2 hPa 0,0 l/m 2 min 0 min 870 W/m 12,9 km/h (3 Bft) 97,87 %
23.07.2021 14:46 26,1 C 29,4 C 22,8 C 52 % 1016,2 hPa 0,0 l/m 2 min 0 min 871 W/m 9,7 km/h (2 Bft) 97,87 %
23.07.2021 14:48 26,1 C 28,9 C 22,8 C 52 % 1016,1 hPa 0,0 l/m 2 min 0 min 869 W/m 6,4 km/h (2 Bft) 97,83 %
23.07.2021 14:50 26,1 C 28,9 C 22,8 C 54 % 1016,1 hPa 0,0 l/m 2 min 0 min 878 W/m 19,3 km/h (3 Bft) 97,87 %
23.07.2021 14:52 26,1 C 28,3 C 22,8 C 53 % 1016,0 hPa 0,0 l/m 2 min 0 min 865 W/m 19,3 km/h (3 Bft) 97,87 %
23.07.2021 14:54 26,1 C 27,8 C 22,3 C 53 % 1015,9 hPa 0,0 l/m 2 min 0 min 868 W/m 16,1 km/h (3 Bft) 97,87 %
23.07.2021 14:56 26,1 C 28,3 C 22,3 C 55 % 1015,9 hPa 0,0 l/m 2 min 0 min 869 W/m 9,7 km/h (2 Bft) 95,74 %
23.07.2021 14:58 26,1 C 29,4 C 22,3 C 55 % 1015,9 hPa 0,0 l/m 2 min 0 min 867 W/m 9,7 km/h (2 Bft) 97,87 %
23.07.2021 15:00 26,1 C 29,4 C 22,8 C 55 % 1015,8 hPa 0,0 l/m 2 min 0 min 863 W/m 9,7 km/h (2 Bft) 97,83 %
23.07.2021 15:02 26,0 C 30,0 C 22,3 C 54 % 1015,9 hPa 0,0 l/m 2 min 0 min 857 W/m 12,9 km/h (3 Bft) 95,74 %
23.07.2021 15:04 26,0 C 29,4 C 22,3 C 55 % 1015,9 hPa 0,0 l/m 2 min 0 min 847 W/m 12,9 km/h (3 Bft) 91,84 %
23.07.2021 15:06 26,0 C 28,9 C 22,3 C 54 % 1015,8 hPa 0,0 l/m 2 min 0 min 854 W/m 12,9 km/h (3 Bft) 95,74 %
23.07.2021 15:08 25,9 C 28,9 C 22,3 C 54 % 1015,8 hPa 0,0 l/m 2 min 0 min 847 W/m 12,9 km/h (3 Bft) 95,74 %
23.07.2021 15:10 26,0 C 28,9 C 22,3 C 55 % 1015,8 hPa 0,0 l/m 2 min 0 min 849 W/m 12,9 km/h (3 Bft) 93,48 %
23.07.2021 15:12 26,0 C 28,9 C 22,3 C 55 % 1015,9 hPa 0,0 l/m 2 min 0 min 845 W/m 12,9 km/h (3 Bft) 95,74 %
23.07.2021 15:14 25,9 C 28,9 C 22,3 C 54 % 1015,8 hPa 0,0 l/m 2 min 0 min 839 W/m 9,7 km/h (2 Bft) 95,74 %
23.07.2021 15:16 25,9 C 28,9 C 22,3 C 55 % 1015,8 hPa 0,0 l/m 2 min 0 min 844 W/m 12,9 km/h (3 Bft) 95,74 %
23.07.2021 15:18 26,0 C 29,4 C 22,8 C 55 % 1015,7 hPa 0,0 l/m 2 min 0 min 839 W/m 9,7 km/h (2 Bft) 95,74 %
23.07.2021 15:20 26,0 C 28,9 C 22,8 C 54 % 1015,8 hPa 0,0 l/m 2 min 0 min 836 W/m 16,1 km/h (3 Bft) 97,83 %
23.07.2021 15:22 26,1 C 28,9 C 22,8 C 54 % 1015,8 hPa 0,0 l/m 2 min 0 min 830 W/m 9,7 km/h (2 Bft) 91,30 %
23.07.2021 15:24 26,2 C 28,3 C 22,8 C 53 % 1015,8 hPa 0,0 l/m 2 min 0 min 825 W/m 9,7 km/h (2 Bft) 95,74 %
23.07.2021 15:26 26,3 C 29,4 C 22,8 C 53 % 1015,8 hPa 0,0 l/m 2 min 0 min 822 W/m 12,9 km/h (3 Bft) 95,74 %
23.07.2021 15:28 26,3 C 29,4 C 22,8 C 53 % 1015,8 hPa 0,0 l/m 2 min 0 min 816 W/m 12,9 km/h (3 Bft) 97,87 %
23.07.2021 15:30 26,3 C 29,4 C 22,8 C 54 % 1015,7 hPa 0,0 l/m 2 min 0 min 815 W/m 9,7 km/h (2 Bft) 95,74 %
23.07.2021 15:32 26,4 C 29,4 C 22,8 C 55 % 1015,8 hPa 0,0 l/m 2 min 0 min 813 W/m 12,9 km/h (3 Bft) 93,62 %
23.07.2021 15:34 26,4 C 28,9 C 22,8 C 53 % 1015,8 hPa 0,0 l/m 2 min 0 min 804 W/m 12,9 km/h (3 Bft) 95,65 %
23.07.2021 15:36 26,5 C 28,9 C 22,8 C 53 % 1015,8 hPa 0,0 l/m 2 min 0 min 798 W/m 25,7 km/h (4 Bft) 95,74 %
23.07.2021 15:38 26,5 C 29,4 C 22,8 C 54 % 1015,8 hPa 0,0 l/m 2 min 0 min 792 W/m 19,3 km/h (3 Bft) 93,62 %
23.07.2021 15:40 26,6 C 28,9 C 22,8 C 52 % 1015,8 hPa 0,0 l/m 2 min 0 min 789 W/m 16,1 km/h (3 Bft) 97,87 %
23.07.2021 15:42 26,6 C 29,4 C 22,8 C 53 % 1015,7 hPa 0,0 l/m 2 min 0 min 786 W/m 9,7 km/h (2 Bft) 97,87 %
23.07.2021 15:44 26,6 C 29,4 C 22,8 C 54 % 1015,7 hPa 0,0 l/m 2 min 0 min 790 W/m 12,9 km/h (3 Bft) 100,00 %
23.07.2021 15:46 26,6 C 30,0 C 23,4 C 55 % 1015,7 hPa 0,0 l/m 2 min 0 min 785 W/m 9,7 km/h (2 Bft) 95,65 %
23.07.2021 15:48 26,6 C 30,0 C 23,4 C 55 % 1015,6 hPa 0,0 l/m 2 min 0 min 771 W/m 9,7 km/h (2 Bft) 97,87 %
23.07.2021 15:50 26,6 C 29,4 C 23,4 C 54 % 1015,7 hPa 0,0 l/m 2 min 0 min 763 W/m 16,1 km/h (3 Bft) 97,87 %
23.07.2021 15:52 26,7 C 30,0 C 23,4 C 54 % 1015,7 hPa 0,0 l/m 2 min 0 min 765 W/m 9,7 km/h (2 Bft) 95,74 %
23.07.2021 15:54 26,8 C 30,0 C 23,4 C 54 % 1015,7 hPa 0,0 l/m 2 min 0 min 763 W/m 16,1 km/h (3 Bft) 97,87 %
23.07.2021 15:56 26,8 C 30,0 C 23,4 C 52 % 1015,7 hPa 0,0 l/m 2 min 0 min 768 W/m 12,9 km/h (3 Bft) 95,74 %
23.07.2021 15:58 26,9 C 30,0 C 23,4 C 52 % 1015,6 hPa 0,0 l/m 2 min 0 min 764 W/m 12,9 km/h (3 Bft) 95,65 %
23.07.2021 16:00 26,9 C 30,0 C 23,4 C 52 % 1015,7 hPa 0,0 l/m 2 min 0 min 761 W/m 12,9 km/h (3 Bft) 97,87 %
23.07.2021 16:02 26,8 C 29,4 C 23,4 C 52 % 1015,7 hPa 0,0 l/m 2 min 0 min 759 W/m 16,1 km/h (3 Bft) 97,87 %
23.07.2021 16:04 26,8 C 30,0 C 22,8 C 52 % 1015,6 hPa 0,0 l/m 2 min 0 min 750 W/m 9,7 km/h (2 Bft) 95,83 %
23.07.2021 16:06 26,8 C 30,0 C 23,4 C 52 % 1015,7 hPa 0,0 l/m 2 min 0 min 751 W/m 9,7 km/h (2 Bft) 97,87 %
23.07.2021 16:08 26,8 C 30,0 C 22,8 C 52 % 1015,6 hPa 0,0 l/m 2 min 0 min 745 W/m 12,9 km/h (3 Bft) 97,87 %
23.07.2021 16:10 26,8 C 30,0 C 23,4 C 53 % 1015,6 hPa 0,0 l/m 2 min 0 min 744 W/m 12,9 km/h (3 Bft) 97,83 %
23.07.2021 16:12 26,8 C 30,0 C 23,4 C 53 % 1015,6 hPa 0,0 l/m 2 min 0 min 731 W/m 12,9 km/h (3 Bft) 97,87 %
23.07.2021 16:14 26,8 C 30,6 C 23,4 C 53 % 1015,6 hPa 0,0 l/m 2 min 0 min 737 W/m 3,2 km/h (1 Bft) 97,87 %
23.07.2021 16:16 26,9 C 30,6 C 23,4 C 52 % 1015,6 hPa 0,0 l/m 2 min 0 min 740 W/m 12,9 km/h (3 Bft) 97,96 %
23.07.2021 16:18 27,0 C 30,6 C 23,9 C 52 % 1015,5 hPa 0,0 l/m 2 min 0 min 732 W/m 12,9 km/h (3 Bft) 97,87 %
23.07.2021 16:20 27,0 C 30,6 C 23,4 C 52 % 1015,6 hPa 0,0 l/m 2 min 0 min 725 W/m 12,9 km/h (3 Bft) 95,65 %
23.07.2021 16:22 27,1 C 30,6 C 23,4 C 51 % 1015,6 hPa 0,0 l/m 2 min 0 min 717 W/m 9,7 km/h (2 Bft) 97,87 %
23.07.2021 16:24 27,1 C 31,1 C 23,4 C 52 % 1015,6 hPa 0,0 l/m 2 min 0 min 715 W/m 3,2 km/h (1 Bft) 97,87 %
23.07.2021 16:26 27,1 C 31,7 C 23,9 C 53 % 1015,6 hPa 0,0 l/m 2 min 0 min 712 W/m 12,9 km/h (3 Bft) 97,87 %
23.07.2021 16:28 27,2 C 32,2 C 23,9 C 53 % 1015,5 hPa 0,0 l/m 2 min 0 min 711 W/m 6,4 km/h (2 Bft) 95,74 %
23.07.2021 16:30 27,3 C 31,7 C 23,9 C 51 % 1015,5 hPa 0,0 l/m 2 min 0 min 707 W/m 6,4 km/h (2 Bft) 97,87 %
23.07.2021 16:32 27,3 C 31,7 C 23,9 C 51 % 1015,5 hPa 0,0 l/m 2 min 0 min 700 W/m 6,4 km/h (2 Bft) 97,83 %
23.07.2021 16:34 27,3 C 31,7 C 23,9 C 51 % 1015,5 hPa 0,0 l/m 2 min 0 min 692 W/m 9,7 km/h (2 Bft) 97,87 %
23.07.2021 16:36 27,3 C 31,7 C 23,9 C 52 % 1015,4 hPa 0,0 l/m 2 min 0 min 693 W/m 12,9 km/h (3 Bft) 100,00 %
23.07.2021 16:38 27,3 C 31,7 C 23,9 C 51 % 1015,4 hPa 0,0 l/m 2 min 0 min 696 W/m 12,9 km/h (3 Bft) 97,87 %
23.07.2021 16:40 27,4 C 32,2 C 24,5 C 53 % 1015,4 hPa 0,0 l/m 2 min 0 min 688 W/m 9,7 km/h (2 Bft) 100,00 %
23.07.2021 16:42 27,4 C 32,8 C 24,5 C 51 % 1015,3 hPa 0,0 l/m 2 min 0 min 682 W/m 9,7 km/h (2 Bft) 100,00 %
23.07.2021 16:44 27,5 C 33,3 C 24,5 C 51 % 1015,3 hPa 0,0 l/m 2 min 0 min 681 W/m 6,4 km/h (2 Bft) 100,00 %
23.07.2021 16:46 27,5 C 33,9 C 24,5 C 51 % 1015,2 hPa 0,0 l/m 2 min 0 min 669 W/m 9,7 km/h (2 Bft) 97,87 %
23.07.2021 16:48 27,7 C 33,9 C 24,5 C 49 % 1015,2 hPa 0,0 l/m 2 min 0 min 674 W/m 9,7 km/h (2 Bft) 100,00 %
23.07.2021 16:50 27,8 C 33,9 C 24,5 C 49 % 1015,2 hPa 0,0 l/m 2 min 0 min 671 W/m 6,4 km/h (2 Bft) 100,00 %
23.07.2021 16:52 27,8 C 33,9 C 25,0 C 49 % 1015,2 hPa 0,0 l/m 2 min 0 min 663 W/m 6,4 km/h (2 Bft) 100,00 %
23.07.2021 16:54 27,9 C 33,3 C 25,0 C 49 % 1015,2 hPa 0,0 l/m 2 min 0 min 659 W/m 16,1 km/h (3 Bft) 97,87 %
23.07.2021 16:56 27,8 C 33,3 C 25,0 C 48 % 1015,2 hPa 0,0 l/m 2 min 0 min 657 W/m 9,7 km/h (2 Bft) 100,00 %
23.07.2021 16:58 27,8 C 33,3 C 24,5 C 48 % 1015,2 hPa 0,0 l/m 2 min 0 min 655 W/m 6,4 km/h (2 Bft) 100,00 %
23.07.2021 17:00 27,9 C 33,9 C 24,5 C 48 % 1015,2 hPa 0,0 l/m 2 min 0 min 650 W/m 9,7 km/h (2 Bft) 100,00 %
23.07.2021 17:02 27,9 C 33,9 C 24,5 C 48 % 1015,1 hPa 0,0 l/m 2 min 0 min 646 W/m 9,7 km/h (2 Bft) 100,00 %
23.07.2021 17:04 28,0 C 33,3 C 24,5 C 47 % 1015,1 hPa 0,0 l/m 2 min 0 min 644 W/m 6,4 km/h (2 Bft) 100,00 %
23.07.2021 17:06 27,9 C 32,8 C 24,5 C 48 % 1015,1 hPa 0,0 l/m 2 min 0 min 639 W/m 9,7 km/h (2 Bft) 100,00 %
23.07.2021 17:08 27,9 C 32,8 C 24,5 C 50 % 1015,1 hPa 0,0 l/m 2 min 0 min 630 W/m 12,9 km/h (3 Bft) 100,00 %
23.07.2021 17:10 27,9 C 33,3 C 24,5 C 50 % 1015,1 hPa 0,0 l/m 2 min 0 min 621 W/m 6,4 km/h (2 Bft) 100,00 %
23.07.2021 17:12 27,9 C 32,8 C 25,0 C 51 % 1015,2 hPa 0,0 l/m 2 min 0 min 615 W/m 9,7 km/h (2 Bft) 100,00 %
23.07.2021 17:14 28,0 C 33,3 C 24,5 C 49 % 1015,1 hPa 0,0 l/m 2 min 0 min 612 W/m 6,4 km/h (2 Bft) 100,00 %
23.07.2021 17:16 28,0 C 32,8 C 24,5 C 49 % 1015,1 hPa 0,0 l/m 2 min 0 min 601 W/m 6,4 km/h (2 Bft) 100,00 %
23.07.2021 17:18 28,0 C 32,8 C 25,0 C 50 % 1015,1 hPa 0,0 l/m 2 min 0 min 593 W/m 9,7 km/h (2 Bft) 100,00 %
23.07.2021 17:20 27,9 C 33,3 C 25,0 C 48 % 1015,1 hPa 0,0 l/m 2 min 0 min 587 W/m 9,7 km/h (2 Bft) 100,00 %
23.07.2021 17:22 27,9 C 33,3 C 25,0 C 47 % 1015,1 hPa 0,0 l/m 2 min 0 min 577 W/m 9,7 km/h (2 Bft) 97,87 %
23.07.2021 17:24 27,8 C 33,9 C 25,0 C 48 % 1015,0 hPa 0,0 l/m 2 min 0 min 574 W/m 6,4 km/h (2 Bft) 97,87 %
23.07.2021 17:26 27,9 C 33,9 C 25,0 C 50 % 1015,0 hPa 0,0 l/m 2 min 0 min 578 W/m 9,7 km/h (2 Bft) 97,87 %
23.07.2021 17:28 27,9 C 33,9 C 25,0 C 48 % 1015,0 hPa 0,0 l/m 2 min 0 min 573 W/m 9,7 km/h (2 Bft) 97,87 %
23.07.2021 17:30 27,9 C 33,9 C 25,0 C 47 % 1014,9 hPa 0,0 l/m 2 min 0 min 568 W/m 6,4 km/h (2 Bft) 97,87 %
23.07.2021 17:32 27,9 C 33,9 C 25,0 C 48 % 1015,0 hPa 0,0 l/m 2 min 0 min 562 W/m 9,7 km/h (2 Bft) 97,83 %
23.07.2021 17:34 27,9 C 33,9 C 25,0 C 48 % 1015,0 hPa 0,0 l/m 2 min 0 min 556 W/m 9,7 km/h (2 Bft) 97,87 %
23.07.2021 17:36 27,9 C 33,9 C 25,0 C 48 % 1014,9 hPa 0,0 l/m 2 min 0 min 552 W/m 6,4 km/h (2 Bft) 100,00 %
23.07.2021 17:38 27,9 C 33,9 C 25,0 C 47 % 1014,9 hPa 0,0 l/m 2 min 0 min 547 W/m 9,7 km/h (2 Bft) 95,83 %
23.07.2021 17:40 27,9 C 33,9 C 25,0 C 48 % 1014,9 hPa 0,0 l/m 2 min 0 min 541 W/m 6,4 km/h (2 Bft) 95,74 %
23.07.2021 17:42 27,9 C 33,9 C 25,0 C 46 % 1014,9 hPa 0,0 l/m 2 min 0 min 536 W/m 6,4 km/h (2 Bft) 97,87 %
23.07.2021 17:44 27,8 C 33,9 C 25,0 C 45 % 1014,8 hPa 0,0 l/m 2 min 0 min 534 W/m 6,4 km/h (2 Bft) 97,83 %
23.07.2021 17:46 27,8 C 33,9 C 25,0 C 47 % 1014,8 hPa 0,0 l/m 2 min 0 min 531 W/m 12,9 km/h (3 Bft) 95,74 %
23.07.2021 17:48 27,8 C 33,9 C 25,0 C 47 % 1014,7 hPa 0,0 l/m 2 min 0 min 531 W/m 9,7 km/h (2 Bft) 97,87 %
23.07.2021 17:50 27,8 C 33,9 C 25,6 C 47 % 1014,7 hPa 0,0 l/m 2 min 0 min 526 W/m 9,7 km/h (2 Bft) 97,87 %
23.07.2021 17:52 27,8 C 32,8 C 25,0 C 45 % 1014,7 hPa 0,0 l/m 2 min 0 min 519 W/m 6,4 km/h (2 Bft) 95,74 %
23.07.2021 17:54 27,8 C 32,8 C 25,0 C 45 % 1014,7 hPa 0,0 l/m 2 min 0 min 513 W/m 12,9 km/h (3 Bft) 97,87 %
23.07.2021 17:56 27,7 C 32,8 C 25,0 C 45 % 1014,6 hPa 0,0 l/m 2 min 0 min 506 W/m 9,7 km/h (2 Bft) 95,65 %
23.07.2021 17:58 27,6 C 32,8 C 25,0 C 46 % 1014,6 hPa 0,0 l/m 2 min 0 min 503 W/m 9,7 km/h (2 Bft) 97,87 %
23.07.2021 18:00 27,6 C 32,8 C 25,0 C 48 % 1014,6 hPa 0,0 l/m 2 min 0 min 498 W/m 6,4 km/h (2 Bft) 97,87 %
23.07.2021 18:02 27,6 C 32,8 C 25,0 C 48 % 1014,6 hPa 0,0 l/m 2 min 0 min 490 W/m 9,7 km/h (2 Bft) 97,87 %
23.07.2021 18:04 27,6 C 32,8 C 25,0 C 48 % 1014,6 hPa 0,0 l/m 2 min 0 min 484 W/m 12,9 km/h (3 Bft) 97,87 %
23.07.2021 18:08 27,7 C 33,3 C 25,6 C 48 % 1014,6 hPa 0,0 l/m 4 min 0 min 474 W/m 9,7 km/h (2 Bft) 100,00 %
23.07.2021 18:10 27,8 C 33,3 C 25,6 C 48 % 1014,6 hPa 0,0 l/m 2 min 0 min 466 W/m 9,7 km/h (2 Bft) 100,00 %
23.07.2021 18:12 27,9 C 32,8 C 25,6 C 48 % 1014,6 hPa 0,0 l/m 2 min 0 min 462 W/m 9,7 km/h (2 Bft) 100,00 %
23.07.2021 18:14 28,0 C 33,3 C 25,0 C 48 % 1014,6 hPa 0,0 l/m 2 min 0 min 456 W/m 3,2 km/h (1 Bft) 97,87 %
23.07.2021 18:16 28,1 C 33,9 C 25,6 C 49 % 1014,5 hPa 0,0 l/m 2 min 0 min 451 W/m 6,4 km/h (2 Bft) 100,00 %
23.07.2021 18:18 28,3 C 33,9 C 25,6 C 49 % 1014,5 hPa 0,0 l/m 2 min 0 min 444 W/m 6,4 km/h (2 Bft) 100,00 %
23.07.2021 18:20 28,4 C 33,9 C 25,6 C 49 % 1014,4 hPa 0,0 l/m 2 min 0 min 439 W/m 6,4 km/h (2 Bft) 100,00 %
23.07.2021 18:22 28,4 C 33,9 C 25,6 C 46 % 1014,4 hPa 0,0 l/m 2 min 0 min 433 W/m 6,4 km/h (2 Bft) 97,87 %
23.07.2021 18:24 28,4 C 33,9 C 25,6 C 47 % 1014,4 hPa 0,0 l/m 2 min 0 min 426 W/m 6,4 km/h (2 Bft) 97,87 %
23.07.2021 18:26 28,4 C 33,9 C 25,0 C 48 % 1014,4 hPa 0,0 l/m 2 min 0 min 421 W/m 6,4 km/h (2 Bft) 97,87 %
23.07.2021 18:28 28,3 C 33,3 C 25,6 C 49 % 1014,4 hPa 0,0 l/m 2 min 0 min 412 W/m 9,7 km/h (2 Bft) 95,74 %
23.07.2021 18:30 28,3 C 32,8 C 25,0 C 48 % 1014,4 hPa 0,0 l/m 2 min 0 min 405 W/m 6,4 km/h (2 Bft) 97,83 %
23.07.2021 18:32 28,2 C 32,8 C 25,0 C 48 % 1014,4 hPa 0,0 l/m 2 min 0 min 400 W/m 6,4 km/h (2 Bft) 97,87 %
23.07.2021 18:34 28,2 C 32,8 C 25,0 C 48 % 1014,3 hPa 0,0 l/m 2 min 0 min 394 W/m 6,4 km/h (2 Bft) 95,74 %
23.07.2021 18:36 28,2 C 32,8 C 25,0 C 49 % 1014,3 hPa 0,0 l/m 2 min 0 min 387 W/m 6,4 km/h (2 Bft) 95,74 %
23.07.2021 18:38 28,2 C 33,3 C 25,0 C 48 % 1014,3 hPa 0,0 l/m 2 min 0 min 382 W/m 6,4 km/h (2 Bft) 97,87 %
23.07.2021 18:40 28,1 C 33,3 C 25,0 C 47 % 1014,3 hPa 0,0 l/m 2 min 0 min 379 W/m 6,4 km/h (2 Bft) 97,87 %
23.07.2021 18:42 28,0 C 33,9 C 25,0 C 46 % 1014,3 hPa 0,0 l/m 2 min 0 min 372 W/m 9,7 km/h (2 Bft) 97,87 %
23.07.2021 18:44 27,8 C 33,3 C 25,0 C 47 % 1014,2 hPa 0,0 l/m 2 min 0 min 366 W/m 6,4 km/h (2 Bft) 97,83 %
23.07.2021 18:46 27,7 C 33,3 C 25,0 C 47 % 1014,3 hPa 0,0 l/m 2 min 0 min 360 W/m 6,4 km/h (2 Bft) 93,62 %
23.07.2021 18:48 27,6 C 32,8 C 25,0 C 48 % 1014,2 hPa 0,0 l/m 2 min 0 min 354 W/m 12,9 km/h (3 Bft) 97,87 %
23.07.2021 18:50 27,6 C 32,8 C 24,5 C 49 % 1014,2 hPa 0,0 l/m 2 min 0 min 347 W/m 6,4 km/h (2 Bft) 97,87 %
23.07.2021 18:52 27,6 C 32,8 C 24,5 C 49 % 1014,2 hPa 0,0 l/m 2 min 0 min 339 W/m 6,4 km/h (2 Bft) 97,87 %
23.07.2021 18:54 27,6 C 32,2 C 24,5 C 49 % 1014,2 hPa 0,0 l/m 2 min 0 min 334 W/m 12,9 km/h (3 Bft) 97,83 %
23.07.2021 18:56 27,6 C 32,2 C 24,5 C 49 % 1014,1 hPa 0,0 l/m 2 min 0 min 329 W/m 6,4 km/h (2 Bft) 95,74 %
23.07.2021 18:58 27,7 C 32,2 C 23,9 C 51 % 1014,1 hPa 0,0 l/m 2 min 0 min 301 W/m 9,7 km/h (2 Bft) 97,87 %
23.07.2021 19:00 27,7 C 31,7 C 23,9 C 51 % 1014,1 hPa 0,0 l/m 2 min 0 min 275 W/m 6,4 km/h (2 Bft) 95,74 %
23.07.2021 19:02 27,6 C 32,2 C 23,9 C 51 % 1014,1 hPa 0,0 l/m 2 min 0 min 299 W/m 6,4 km/h (2 Bft) 95,74 %
23.07.2021 19:04 27,5 C 31,7 C 23,4 C 51 % 1014,1 hPa 0,0 l/m 2 min 0 min 306 W/m 6,4 km/h (2 Bft) 93,62 %
23.07.2021 19:06 27,4 C 31,7 C 23,4 C 51 % 1014,0 hPa 0,0 l/m 2 min 0 min 298 W/m 6,4 km/h (2 Bft) 93,48 %
23.07.2021 19:08 27,3 C 31,7 C 23,4 C 53 % 1014,0 hPa 0,0 l/m 2 min 0 min 293 W/m 9,7 km/h (2 Bft) 95,74 %
23.07.2021 19:10 27,1 C 30,6 C 22,8 C 51 % 1014,0 hPa 0,0 l/m 2 min 0 min 274 W/m 3,2 km/h (1 Bft) 95,74 %
23.07.2021 19:12 27,0 C 30,6 C 22,8 C 53 % 1014,0 hPa 0,0 l/m 2 min 0 min 279 W/m 6,4 km/h (2 Bft) 95,74 %
23.07.2021 19:14 27,0 C 30,6 C 22,8 C 53 % 1014,0 hPa 0,0 l/m 2 min 0 min 274 W/m 9,7 km/h (2 Bft) 95,74 %
23.07.2021 19:16 26,8 C 30,0 C 22,8 C 53 % 1014,0 hPa 0,0 l/m 2 min 0 min 268 W/m 9,7 km/h (2 Bft) 95,74 %
23.07.2021 19:18 26,7 C 30,0 C 22,8 C 52 % 1014,0 hPa 0,0 l/m 2 min 0 min 261 W/m 6,4 km/h (2 Bft) 93,48 %
23.07.2021 19:20 26,6 C 30,0 C 22,3 C 54 % 1014,0 hPa 0,0 l/m 2 min 0 min 249 W/m 6,4 km/h (2 Bft) 97,87 %
23.07.2021 19:22 26,5 C 29,4 C 22,3 C 54 % 1013,9 hPa 0,0 l/m 2 min 0 min 242 W/m 6,4 km/h (2 Bft) 97,87 %
23.07.2021 19:24 26,5 C 28,3 C 22,3 C 54 % 1013,9 hPa 0,0 l/m 2 min 0 min 244 W/m 6,4 km/h (2 Bft) 97,87 %
23.07.2021 19:26 26,4 C 27,2 C 22,3 C 53 % 1014,0 hPa 0,0 l/m 2 min 0 min 230 W/m 6,4 km/h (2 Bft) 97,87 %
23.07.2021 19:28 26,3 C 26,7 C 22,3 C 54 % 1014,0 hPa 0,0 l/m 2 min 0 min 220 W/m 6,4 km/h (2 Bft) 97,87 %
23.07.2021 19:30 26,1 C 26,1 C 22,3 C 53 % 1013,9 hPa 0,0 l/m 2 min 0 min 170 W/m 6,4 km/h (2 Bft) 97,83 %
23.07.2021 19:32 26,1 C 25,6 C 22,3 C 54 % 1013,9 hPa 0,0 l/m 2 min 0 min 167 W/m 6,4 km/h (2 Bft) 95,74 %
23.07.2021 19:34 26,0 C 25,6 C 21,7 C 55 % 1013,8 hPa 0,0 l/m 2 min 0 min 178 W/m 6,4 km/h (2 Bft) 95,74 %
23.07.2021 19:36 25,9 C 25,6 C 21,7 C 56 % 1013,9 hPa 0,0 l/m 2 min 0 min 167 W/m 6,4 km/h (2 Bft) 95,74 %
23.07.2021 19:38 25,9 C 25,0 C 21,7 C 55 % 1013,8 hPa 0,0 l/m 2 min 0 min 150 W/m 12,9 km/h (3 Bft) 97,87 %
23.07.2021 19:40 25,8 C 25,0 C 21,7 C 55 % 1013,7 hPa 0,0 l/m 2 min 0 min 144 W/m 6,4 km/h (2 Bft) 97,87 %
23.07.2021 19:42 25,8 C 25,0 C 21,7 C 55 % 1013,7 hPa 0,0 l/m 2 min 0 min 162 W/m 6,4 km/h (2 Bft) 95,65 %
23.07.2021 19:44 25,6 C 24,4 C 21,7 C 55 % 1013,7 hPa 0,0 l/m 0 min 0 min 120 W/m 6,4 km/h (2 Bft) 100,00 %
23.07.2021 19:46 25,5 C 24,4 C 21,7 C 54 % 1013,6 hPa 0,0 l/m 0 min 0 min 79 W/m 6,4 km/h (2 Bft) 95,74 %
23.07.2021 19:48 25,5 C 24,4 C 21,7 C 54 % 1013,6 hPa 0,0 l/m 0 min 0 min 73 W/m 6,4 km/h (2 Bft) 97,87 %
23.07.2021 19:50 25,4 C 24,4 C 21,7 C 55 % 1013,6 hPa 0,0 l/m 0 min 0 min 71 W/m 9,7 km/h (2 Bft) 95,74 %
23.07.2021 19:52 25,3 C 24,4 C 21,7 C 57 % 1013,6 hPa 0,0 l/m 0 min 0 min 70 W/m 6,4 km/h (2 Bft) 97,87 %
23.07.2021 19:54 25,3 C 24,4 C 21,7 C 57 % 1013,6 hPa 0,0 l/m 0 min 0 min 69 W/m 6,4 km/h (2 Bft) 95,65 %
23.07.2021 19:56 25,1 C 24,4 C 21,1 C 57 % 1013,6 hPa 0,0 l/m 0 min 0 min 68 W/m 6,4 km/h (2 Bft) 95,74 %
23.07.2021 19:58 25,1 C 24,4 C 21,1 C 57 % 1013,6 hPa 0,0 l/m 0 min 0 min 67 W/m 6,4 km/h (2 Bft) 93,62 %
23.07.2021 20:00 25,0 C 24,4 C 21,1 C 58 % 1013,6 hPa 0,0 l/m 0 min 0 min 65 W/m 6,4 km/h (2 Bft) 95,74 %
23.07.2021 20:02 24,9 C 24,4 C 21,1 C 58 % 1013,5 hPa 0,0 l/m 0 min 0 min 63 W/m 6,4 km/h (2 Bft) 97,87 %
23.07.2021 20:04 24,9 C 23,9 C 21,1 C 59 % 1013,5 hPa 0,0 l/m 0 min 0 min 62 W/m 6,4 km/h (2 Bft) 97,87 %
23.07.2021 20:06 24,8 C 23,9 C 21,1 C 60 % 1013,5 hPa 0,0 l/m 0 min 0 min 62 W/m 6,4 km/h (2 Bft) 97,83 %
23.07.2021 20:08 24,8 C 23,9 C 21,1 C 59 % 1013,5 hPa 0,0 l/m 0 min 0 min 59 W/m 6,4 km/h (2 Bft) 97,87 %
23.07.2021 20:10 24,7 C 23,9 C 21,1 C 59 % 1013,5 hPa 0,0 l/m 0 min 0 min 58 W/m 3,2 km/h (1 Bft) 97,87 %
23.07.2021 20:12 24,6 C 23,9 C 21,1 C 60 % 1013,4 hPa 0,0 l/m 0 min 0 min 56 W/m 3,2 km/h (1 Bft) 97,87 %
23.07.2021 20:14 24,5 C 23,9 C 20,6 C 60 % 1013,4 hPa 0,0 l/m 0 min 0 min 54 W/m 6,4 km/h (2 Bft) 93,62 %
23.07.2021 20:16 24,4 C 23,3 C 20,6 C 60 % 1013,4 hPa 0,0 l/m 0 min 0 min 53 W/m 6,4 km/h (2 Bft) 95,65 %
23.07.2021 20:18 24,4 C 23,3 C 20,6 C 61 % 1013,4 hPa 0,0 l/m 0 min 0 min 52 W/m 6,4 km/h (2 Bft) 97,87 %
23.07.2021 20:20 24,3 C 23,3 C 20,6 C 61 % 1013,4 hPa 0,0 l/m 0 min 0 min 51 W/m 3,2 km/h (1 Bft) 95,74 %
23.07.2021 20:22 24,1 C 23,3 C 20,6 C 61 % 1013,4 hPa 0,0 l/m 0 min 0 min 49 W/m 6,4 km/h (2 Bft) 95,74 %
23.07.2021 20:24 24,1 C 23,3 C 20,6 C 63 % 1013,4 hPa 0,0 l/m 0 min 0 min 48 W/m 3,2 km/h (1 Bft) 97,87 %
23.07.2021 20:26 24,0 C 23,3 C 20,6 C 62 % 1013,4 hPa 0,0 l/m 0 min 0 min 45 W/m 6,4 km/h (2 Bft) 97,87 %
23.07.2021 20:28 24,0 C 23,3 C 20,6 C 62 % 1013,4 hPa 0,0 l/m 0 min 0 min 44 W/m 3,2 km/h (1 Bft) 97,87 %
23.07.2021 20:30 23,9 C 22,8 C 20,6 C 62 % 1013,3 hPa 0,0 l/m 0 min 0 min 43 W/m 3,2 km/h (1 Bft) 96,15 %
23.07.2021 20:32 23,9 C 22,8 C 20,0 C 62 % 1013,3 hPa 0,0 l/m 0 min 0 min 42 W/m 3,2 km/h (1 Bft) 95,74 %
23.07.2021 20:34 23,9 C 22,8 C 20,0 C 64 % 1013,2 hPa 0,0 l/m 0 min 0 min 41 W/m 3,2 km/h (1 Bft) 97,87 %
23.07.2021 20:36 23,8 C 22,8 C 20,0 C 64 % 1013,3 hPa 0,0 l/m 0 min 0 min 39 W/m 3,2 km/h (1 Bft) 97,87 %
23.07.2021 20:38 23,7 C 22,8 C 20,0 C 64 % 1013,3 hPa 0,0 l/m 0 min 0 min 37 W/m 3,2 km/h (1 Bft) 97,87 %
23.07.2021 20:40 23,6 C 22,8 C 20,0 C 64 % 1013,3 hPa 0,0 l/m 0 min 0 min 35 W/m 6,4 km/h (2 Bft) 100,00 %
23.07.2021 20:42 23,5 C 22,8 C 20,0 C 64 % 1013,3 hPa 0,0 l/m 0 min 0 min 33 W/m 3,2 km/h (1 Bft) 100,00 %
23.07.2021 20:44 23,5 C 22,2 C 20,0 C 64 % 1013,2 hPa 0,0 l/m 0 min 0 min 32 W/m 3,2 km/h (1 Bft) 97,87 %
23.07.2021 20:46 23,5 C 22,2 C 20,0 C 65 % 1013,3 hPa 0,0 l/m 0 min 0 min 32 W/m 3,2 km/h (1 Bft) 97,14 %
23.07.2021 20:48 23,4 C 22,2 C 20,0 C 64 % 1013,3 hPa 0,0 l/m 0 min 0 min 32 W/m 3,2 km/h (1 Bft) 98,31 %
23.07.2021 20:50 23,4 C 22,2 C 19,5 C 64 % 1013,3 hPa 0,0 l/m 0 min 0 min 30 W/m 3,2 km/h (1 Bft) 100,00 %
23.07.2021 20:52 23,3 C 22,2 C 19,5 C 64 % 1013,2 hPa 0,0 l/m 0 min 0 min 30 W/m 6,4 km/h (2 Bft) 100,00 %
23.07.2021 20:54 23,3 C 22,2 C 19,5 C 64 % 1013,2 hPa 0,0 l/m 0 min 0 min 30 W/m 6,4 km/h (2 Bft) 100,00 %
23.07.2021 20:56 23,2 C 22,2 C 19,5 C 64 % 1013,2 hPa 0,0 l/m 0 min 0 min 28 W/m 3,2 km/h (1 Bft) 100,00 %
23.07.2021 20:58 23,1 C 22,2 C 19,5 C 64 % 1013,2 hPa 0,0 l/m 0 min 0 min 27 W/m 3,2 km/h (1 Bft) 97,87 %
23.07.2021 21:00 23,1 C 21,7 C 19,5 C 65 % 1013,2 hPa 0,0 l/m 0 min 0 min 25 W/m 3,2 km/h (1 Bft) 100,00 %
23.07.2021 21:02 23,0 C 21,7 C 19,5 C 65 % 1013,3 hPa 0,0 l/m 0 min 0 min 25 W/m 3,2 km/h (1 Bft) 100,00 %
23.07.2021 21:04 23,0 C 21,7 C 19,5 C 64 % 1013,2 hPa 0,0 l/m 0 min 0 min 24 W/m 6,4 km/h (2 Bft) 98,28 %
23.07.2021 21:06 22,9 C 21,7 C 19,5 C 63 % 1013,2 hPa 0,0 l/m 0 min 0 min 21 W/m 3,2 km/h (1 Bft) 100,00 %
23.07.2021 21:08 22,9 C 21,7 C 19,5 C 64 % 1013,3 hPa 0,0 l/m 0 min 0 min 19 W/m 0,0 km/h (0 Bft) 100,00 %
23.07.2021 21:10 22,9 C 21,7 C 18,9 C 64 % 1013,3 hPa 0,0 l/m 0 min 0 min 18 W/m 3,2 km/h (1 Bft) 100,00 %
23.07.2021 21:12 22,8 C 21,7 C 18,9 C 65 % 1013,2 hPa 0,0 l/m 0 min 0 min 16 W/m 0,0 km/h (0 Bft) 100,00 %
23.07.2021 21:14 22,8 C 21,1 C 18,9 C 66 % 1013,2 hPa 0,0 l/m 0 min 0 min 15 W/m 0,0 km/h (0 Bft) 100,00 %
23.07.2021 21:16 22,8 C 21,1 C 18,9 C 67 % 1013,2 hPa 0,0 l/m 0 min 0 min 13 W/m 0,0 km/h (0 Bft) 100,00 %
23.07.2021 21:18 22,6 C 21,1 C 18,9 C 66 % 1013,2 hPa 0,0 l/m 0 min 0 min 12 W/m 3,2 km/h (1 Bft) 100,00 %
23.07.2021 21:20 22,6 C 21,1 C 18,9 C 66 % 1013,2 hPa 0,0 l/m 0 min 0 min 11 W/m 3,2 km/h (1 Bft) 100,00 %
23.07.2021 21:22 22,5 C 21,1 C 18,9 C 68 % 1013,2 hPa 0,0 l/m 0 min 0 min 10 W/m 3,2 km/h (1 Bft) 100,00 %
23.07.2021 21:24 22,5 C 21,1 C 18,4 C 68 % 1013,2 hPa 0,0 l/m 0 min 0 min 9 W/m 3,2 km/h (1 Bft) 100,00 %
23.07.2021 21:26 22,5 C 20,6 C 18,4 C 68 % 1013,2 hPa 0,0 l/m 0 min 0 min 7 W/m 0,0 km/h (0 Bft) 97,87 %
23.07.2021 21:28 22,4 C 20,6 C 18,4 C 67 % 1013,2 hPa 0,0 l/m 0 min 0 min 7 W/m 0,0 km/h (0 Bft) 100,00 %
23.07.2021 21:30 22,3 C 20,6 C 18,4 C 68 % 1013,3 hPa 0,0 l/m 0 min 0 min 5 W/m 0,0 km/h (0 Bft) 97,83 %
23.07.2021 21:32 22,3 C 20,6 C 18,4 C 68 % 1013,3 hPa 0,0 l/m 0 min 0 min 5 W/m 0,0 km/h (0 Bft) 97,87 %
23.07.2021 21:34 22,2 C 20,6 C 17,8 C 69 % 1013,3 hPa 0,0 l/m 0 min 0 min 2 W/m 3,2 km/h (1 Bft) 100,00 %
23.07.2021 21:36 22,1 C 20,6 C 17,8 C 70 % 1013,2 hPa 0,0 l/m 0 min 0 min 0 W/m 0,0 km/h (0 Bft) 100,00 %
23.07.2021 21:38 22,1 C 20,0 C 17,8 C 69 % 1013,2 hPa 0,0 l/m 0 min 0 min 0 W/m 0,0 km/h (0 Bft) 100,00 %
23.07.2021 21:40 22,0 C 20,0 C 17,8 C 69 % 1013,3 hPa 0,0 l/m 0 min 0 min 0 W/m 0,0 km/h (0 Bft) 100,00 %
23.07.2021 21:42 21,9 C 20,0 C 17,8 C 69 % 1013,2 hPa 0,0 l/m 0 min 0 min 0 W/m 0,0 km/h (0 Bft) 100,00 %
23.07.2021 21:44 21,8 C 20,0 C 17,8 C 70 % 1013,2 hPa 0,0 l/m 0 min 0 min 0 W/m 0,0 km/h (0 Bft) 97,87 %
23.07.2021 21:46 21,8 C 20,0 C 17,8 C 70 % 1013,3 hPa 0,0 l/m 0 min 0 min 0 W/m 0,0 km/h (0 Bft) 97,87 %
23.07.2021 21:48 21,7 C 20,0 C 17,8 C 71 % 1013,2 hPa 0,0 l/m 0 min 0 min 0 W/m 0,0 km/h (0 Bft) 97,87 %
23.07.2021 21:50 21,6 C 20,0 C 17,8 C 71 % 1013,3 hPa 0,0 l/m 0 min 0 min 0 W/m 0,0 km/h (0 Bft) 95,74 %
23.07.2021 21:52 21,6 C 20,0 C 17,3 C 71 % 1013,3 hPa 0,0 l/m 0 min 0 min 0 W/m 0,0 km/h (0 Bft) 95,65 %
23.07.2021 21:54 21,5 C 20,0 C 17,3 C 71 % 1013,3 hPa 0,0 l/m 0 min 0 min 0 W/m 3,2 km/h (1 Bft) 97,87 %
23.07.2021 21:56 21,5 C 19,4 C 17,3 C 72 % 1013,3 hPa 0,0 l/m 0 min 0 min 0 W/m 3,2 km/h (1 Bft) 97,87 %
23.07.2021 21:58 21,5 C 19,4 C 17,3 C 72 % 1013,3 hPa 0,0 l/m 0 min 0 min 0 W/m 0,0 km/h (0 Bft) 97,87 %
23.07.2021 22:00 21,4 C 19,4 C 17,3 C 72 % 1013,3 hPa 0,0 l/m 0 min 0 min 0 W/m 0,0 km/h (0 Bft) 95,74 %
23.07.2021 22:02 21,4 C 19,4 C 17,3 C 72 % 1013,3 hPa 0,0 l/m 0 min 0 min 0 W/m 0,0 km/h (0 Bft) 97,87 %
23.07.2021 22:04 21,3 C 19,4 C 17,3 C 71 % 1013,3 hPa 0,0 l/m 0 min 0 min 0 W/m 3,2 km/h (1 Bft) 93,48 %
23.07.2021 22:06 21,2 C 19,4 C 17,3 C 71 % 1013,2 hPa 0,0 l/m 0 min 0 min 0 W/m 0,0 km/h (0 Bft) 93,62 %
23.07.2021 22:08 21,1 C 19,4 C 17,3 C 72 % 1013,3 hPa 0,0 l/m 0 min 0 min 0 W/m 0,0 km/h (0 Bft) 95,74 %
23.07.2021 22:10 21,1 C 19,4 C 17,3 C 72 % 1013,3 hPa 0,0 l/m 0 min 0 min 0 W/m 0,0 km/h (0 Bft) 93,62 %
23.07.2021 22:12 21,0 C 19,4 C 17,3 C 72 % 1013,3 hPa 0,0 l/m 0 min 0 min 0 W/m 3,2 km/h (1 Bft) 95,74 %
23.07.2021 22:14 20,9 C 19,4 C 17,3 C 72 % 1013,2 hPa 0,0 l/m 0 min 0 min 0 W/m 0,0 km/h (0 Bft) 95,74 %
23.07.2021 22:16 20,9 C 18,9 C 16,7 C 73 % 1013,2 hPa 0,0 l/m 0 min 0 min 0 W/m 0,0 km/h (0 Bft) 95,65 %
23.07.2021 22:18 20,8 C 18,9 C 16,7 C 72 % 1013,2 hPa 0,0 l/m 0 min 0 min 0 W/m 0,0 km/h (0 Bft) 95,74 %
23.07.2021 22:20 20,8 C 18,9 C 16,7 C 73 % 1013,2 hPa 0,0 l/m 0 min 0 min 0 W/m 0,0 km/h (0 Bft) 95,74 %
23.07.2021 22:22 20,7 C 18,9 C 16,7 C 73 % 1013,2 hPa 0,0 l/m 0 min 0 min 0 W/m 0,0 km/h (0 Bft) 95,74 %
23.07.2021 22:24 20,6 C 18,9 C 16,7 C 73 % 1013,3 hPa 0,0 l/m 0 min 0 min 0 W/m 0,0 km/h (0 Bft) 93,62 %
23.07.2021 22:26 20,6 C 18,9 C 16,7 C 73 % 1013,2 hPa 0,0 l/m 0 min 0 min 0 W/m 0,0 km/h (0 Bft) 95,74 %
23.07.2021 22:28 20,5 C 18,9 C 16,7 C 72 % 1013,2 hPa 0,0 l/m 0 min 0 min 0 W/m 3,2 km/h (1 Bft) 93,62 %
23.07.2021 22:30 20,5 C 18,9 C 16,7 C 71 % 1013,2 hPa 0,0 l/m 0 min 0 min 0 W/m 3,2 km/h (1 Bft) 95,65 %
23.07.2021 22:32 20,4 C 18,9 C 16,7 C 71 % 1013,2 hPa 0,0 l/m 0 min 0 min 0 W/m 3,2 km/h (1 Bft) 95,83 %
23.07.2021 22:34 20,4 C 18,9 C 16,7 C 71 % 1013,2 hPa 0,0 l/m 0 min 0 min 0 W/m 3,2 km/h (1 Bft) 95,74 %
23.07.2021 22:36 20,3 C 18,9 C 16,7 C 71 % 1013,2 hPa 0,0 l/m 0 min 0 min 0 W/m 3,2 km/h (1 Bft) 95,74 %
23.07.2021 22:38 20,3 C 18,9 C 16,7 C 71 % 1013,2 hPa 0,0 l/m 0 min 0 min 0 W/m 0,0 km/h (0 Bft) 93,62 %
23.07.2021 22:40 20,3 C 18,9 C 16,7 C 71 % 1013,2 hPa 0,0 l/m 0 min 0 min 0 W/m 3,2 km/h (1 Bft) 93,48 %
23.07.2021 22:42 20,2 C 18,9 C 16,7 C 71 % 1013,2 hPa 0,0 l/m 0 min 0 min 0 W/m 3,2 km/h (1 Bft) 91,49 %
23.07.2021 22:44 20,1 C 18,9 C 16,7 C 71 % 1013,2 hPa 0,0 l/m 0 min 0 min 0 W/m 3,2 km/h (1 Bft) 93,62 %
23.07.2021 22:46 20,1 C 18,9 C 16,7 C 72 % 1013,2 hPa 0,0 l/m 0 min 0 min 0 W/m 6,4 km/h (2 Bft) 93,62 %
23.07.2021 22:48 20,1 C 18,9 C 16,7 C 72 % 1013,2 hPa 0,0 l/m 0 min 0 min 0 W/m 3,2 km/h (1 Bft) 97,87 %
23.07.2021 22:50 20,0 C 18,9 C 16,7 C 72 % 1013,2 hPa 0,0 l/m 0 min 0 min 0 W/m 3,2 km/h (1 Bft) 95,74 %
23.07.2021 22:52 20,0 C 18,9 C 16,7 C 72 % 1013,2 hPa 0,0 l/m 0 min 0 min 0 W/m 0,0 km/h (0 Bft) 91,30 %
23.07.2021 22:54 20,0 C 18,9 C 16,7 C 72 % 1013,2 hPa 0,0 l/m 0 min 0 min 0 W/m 3,2 km/h (1 Bft) 91,49 %
23.07.2021 22:56 20,0 C 18,9 C 16,7 C 73 % 1013,2 hPa 0,0 l/m 0 min 0 min 0 W/m 3,2 km/h (1 Bft) 95,74 %
23.07.2021 22:58 19,9 C 18,9 C 16,7 C 73 % 1013,2 hPa 0,0 l/m 0 min 0 min 0 W/m 0,0 km/h (0 Bft) 97,87 %
23.07.2021 23:00 19,9 C 18,9 C 16,7 C 73 % 1013,1 hPa 0,0 l/m 0 min 0 min 0 W/m 3,2 km/h (1 Bft) 97,87 %
23.07.2021 23:02 19,9 C 18,9 C 16,1 C 73 % 1013,1 hPa 0,0 l/m 0 min 0 min 0 W/m 3,2 km/h (1 Bft) 95,83 %
23.07.2021 23:04 19,9 C 18,9 C 16,1 C 73 % 1013,1 hPa 0,0 l/m 0 min 0 min 0 W/m 9,7 km/h (2 Bft) 97,83 %
23.07.2021 23:06 19,8 C 18,9 C 16,7 C 73 % 1013,1 hPa 0,0 l/m 0 min 0 min 0 W/m 9,7 km/h (2 Bft) 97,87 %
23.07.2021 23:08 19,8 C 18,9 C 16,7 C 73 % 1013,2 hPa 0,0 l/m 0 min 0 min 0 W/m 6,4 km/h (2 Bft) 95,74 %
23.07.2021 23:10 19,8 C 18,9 C 16,7 C 73 % 1013,1 hPa 0,0 l/m 0 min 0 min 0 W/m 6,4 km/h (2 Bft) 97,87 %
23.07.2021 23:12 19,8 C 18,9 C 16,7 C 73 % 1013,1 hPa 0,0 l/m 0 min 0 min 0 W/m 3,2 km/h (1 Bft) 97,87 %
23.07.2021 23:14 19,8 C 18,9 C 16,7 C 74 % 1013,1 hPa 0,0 l/m 0 min 0 min 0 W/m 3,2 km/h (1 Bft) 97,87 %
23.07.2021 23:16 19,7 C 18,9 C 16,7 C 74 % 1013,0 hPa 0,0 l/m 0 min 0 min 0 W/m 3,2 km/h (1 Bft) 97,83 %
23.07.2021 23:18 19,7 C 18,9 C 16,7 C 74 % 1013,1 hPa 0,0 l/m 0 min 0 min 0 W/m 3,2 km/h (1 Bft) 97,87 %
23.07.2021 23:20 19,6 C 18,9 C 16,1 C 74 % 1013,1 hPa 0,0 l/m 0 min 0 min 0 W/m 3,2 km/h (1 Bft) 97,87 %
23.07.2021 23:22 19,6 C 18,9 C 16,1 C 74 % 1013,0 hPa 0,0 l/m 0 min 0 min 0 W/m 3,2 km/h (1 Bft) 97,92 %
23.07.2021 23:24 19,6 C 18,9 C 16,1 C 75 % 1013,0 hPa 0,0 l/m 0 min 0 min 0 W/m 6,4 km/h (2 Bft) 97,87 %
23.07.2021 23:26 19,6 C 18,9 C 16,1 C 75 % 1013,0 hPa 0,0 l/m 0 min 0 min 0 W/m 0,0 km/h (0 Bft) 95,74 %
23.07.2021 23:28 19,5 C 18,9 C 16,1 C 75 % 1012,9 hPa 0,0 l/m 0 min 0 min 0 W/m 0,0 km/h (0 Bft) 97,87 %
23.07.2021 23:30 19,5 C 18,9 C 16,1 C 75 % 1013,0 hPa 0,0 l/m 0 min 0 min 0 W/m 0,0 km/h (0 Bft) 100,00 %
23.07.2021 23:32 19,5 C 18,3 C 16,1 C 76 % 1012,9 hPa 0,0 l/m 0 min 0 min 0 W/m 0,0 km/h (0 Bft) 97,87 %
23.07.2021 23:34 19,5 C 18,3 C 16,1 C 76 % 1012,9 hPa 0,0 l/m 0 min 0 min 0 W/m 0,0 km/h (0 Bft) 100,00 %
23.07.2021 23:36 19,5 C 18,3 C 16,1 C 76 % 1012,9 hPa 0,0 l/m 0 min 0 min 0 W/m 0,0 km/h (0 Bft) 100,00 %
23.07.2021 23:38 19,4 C 18,3 C 16,1 C 76 % 1012,9 hPa 0,0 l/m 0 min 0 min 0 W/m 0,0 km/h (0 Bft) 100,00 %
23.07.2021 23:40 19,4 C 18,3 C 16,1 C 77 % 1012,9 hPa 0,0 l/m 0 min 0 min 0 W/m 0,0 km/h (0 Bft) 100,00 %
23.07.2021 23:42 19,3 C 18,3 C 16,1 C 77 % 1012,9 hPa 0,0 l/m 0 min 0 min 0 W/m 0,0 km/h (0 Bft) 100,00 %
23.07.2021 23:44 19,3 C 18,3 C 16,1 C 77 % 1012,9 hPa 0,0 l/m 0 min 0 min 0 W/m 0,0 km/h (0 Bft) 100,00 %
23.07.2021 23:46 19,2 C 18,3 C 15,6 C 77 % 1012,9 hPa 0,0 l/m 0 min 0 min 0 W/m 3,2 km/h (1 Bft) 100,00 %
23.07.2021 23:48 19,1 C 18,3 C 15,6 C 78 % 1012,9 hPa 0,0 l/m 0 min 0 min 0 W/m 0,0 km/h (0 Bft) 100,00 %
23.07.2021 23:50 19,1 C 18,3 C 15,6 C 78 % 1012,9 hPa 0,0 l/m 0 min 0 min 0 W/m 0,0 km/h (0 Bft) 100,00 %
23.07.2021 23:52 19,0 C 17,8 C 15,6 C 78 % 1012,9 hPa 0,0 l/m 0 min 0 min 0 W/m 0,0 km/h (0 Bft) 100,00 %
23.07.2021 23:54 19,0 C 17,8 C 15,6 C 78 % 1012,9 hPa 0,0 l/m 0 min 0 min 0 W/m 3,2 km/h (1 Bft) 100,00 %
23.07.2021 23:56 19,0 C 17,8 C 15,6 C 78 % 1012,9 hPa 0,0 l/m 0 min 0 min 0 W/m 3,2 km/h (1 Bft) 100,00 %
23.07.2021 23:58 19,0 C 17,8 C 15,6 C 78 % 1013,0 hPa 0,0 l/m 0 min 0 min 0 W/m 0,0 km/h (0 Bft) 100,00 %
_ Min-Zeit 06:16 05:20 05:02 17:44 23:28 - - - - 00:28 12:26
Minimum _ 13,5 C 12,8 C 11,7 C 45 % 1012,9 hPa - - - - 0,0 km/h (0 Bft) 65,96 %
_ Max-Zeit 18:20 16:46 12:38 06:34 00:42 00:00 12:08 00:00 13:46 12:28 00:00
Maximum _ 28,4 C 33,9 C 31,1 C 91 % 1020,1 hPa 0,0 l/m 4 min 0 min 895 W/m 25,7 km/h
N-NW (4 Bft)
100,00 %
Durchschnitt _ 20,8 C 21,9 C 18,7 C 70 % 1017,1 hPa #0,0 l/m #11:42 h #0 min. 485 W/m 6,5 km/h (2 Bft) 97,03 %
© 2021 W. Hausmann